<?xml version="1.0" encoding="UTF-8" standalone="no" ?>
<gpx xmlns="http://www.topografix.com/GPX/1/1" xmlns:xsi="http://www.w3.org/2001/XMLSchema-instance" xsi:schemaLocation="http://www.topografix.com/GPX/1/1 http://www.topografix.com/GPX/1/1/gpx.xsd" version="1.1" creator="VisuGPX - https://www.visugpx.com">
  <metadata>
    <name>MADERE - PEDESTRE - Les 25 sources depuis le parking de Rabaçal</name>
    <desc><![CDATA[Un aller/retour du parking de Rabaçal au 25 fontaines via la cascade de Risco]]></desc>
  </metadata>
  <wpt lat="32.76066" lon="-17.12316">
    <name><![CDATA[Cascade do Risco]]></name>
  </wpt>
  <wpt lat="32.75482" lon="-17.13372">
    <ele>1285</ele>
    <name><![CDATA[Départ parking de Rabaçal]]></name>
    <desc><![CDATA[03-MAI-13 21:30:55]]></desc>
  </wpt>
  <wpt lat="32.76574" lon="-17.12547">
    <name><![CDATA[Les 25 sources]]></name>
  </wpt>
  <wpt lat="32.76164" lon="-17.13461">
    <name><![CDATA[maison forestière Rabaçal]]></name>
  </wpt>
  <trk>
    <name><![CDATA[ACTIVE LOG 003]]></name>
    <trkseg>
      <trkpt lat="32.75482" lon="-17.13372">
        <ele>1283.497314</ele>
        <time>2013-05-04T08:29:32Z</time>
      </trkpt>
      <trkpt lat="32.75482" lon="-17.13372">
        <ele>1283.497314</ele>
        <time>2013-05-04T08:29:33Z</time>
      </trkpt>
      <trkpt lat="32.75482" lon="-17.13372">
        <ele>1284.939453</ele>
        <time>2013-05-04T08:29:35Z</time>
      </trkpt>
      <trkpt lat="32.75482" lon="-17.13372">
        <ele>1281.574707</ele>
        <time>2013-05-04T08:29:47Z</time>
      </trkpt>
      <trkpt lat="32.75482" lon="-17.13372">
        <ele>1281.574707</ele>
        <time>2013-05-04T08:29:48Z</time>
      </trkpt>
      <trkpt lat="32.75482" lon="-17.13372">
        <ele>1286.861816</ele>
        <time>2013-05-04T08:29:49Z</time>
      </trkpt>
      <trkpt lat="32.75482" lon="-17.13372">
        <ele>1288.303955</ele>
        <time>2013-05-04T08:29:51Z</time>
      </trkpt>
      <trkpt lat="32.75482" lon="-17.13371">
        <ele>1288.784668</ele>
        <time>2013-05-04T08:30:09Z</time>
      </trkpt>
      <trkpt lat="32.7548" lon="-17.13374">
        <ele>1288.784668</ele>
        <time>2013-05-04T08:30:25Z</time>
      </trkpt>
      <trkpt lat="32.75482" lon="-17.13372">
        <ele>1288.303955</ele>
        <time>2013-05-04T08:30:42Z</time>
      </trkpt>
      <trkpt lat="32.75482" lon="-17.13372">
        <ele>1287.823242</ele>
        <time>2013-05-04T08:30:48Z</time>
      </trkpt>
      <trkpt lat="32.75482" lon="-17.13372">
        <ele>1289.265137</ele>
        <time>2013-05-04T08:30:50Z</time>
      </trkpt>
      <trkpt lat="32.75482" lon="-17.13372">
        <ele>1288.303955</ele>
        <time>2013-05-04T08:30:52Z</time>
      </trkpt>
      <trkpt lat="32.75481" lon="-17.13372">
        <ele>1292.149414</ele>
        <time>2013-05-04T08:30:57Z</time>
      </trkpt>
      <trkpt lat="32.75482" lon="-17.13372">
        <ele>1289.74585</ele>
        <time>2013-05-04T08:30:58Z</time>
      </trkpt>
      <trkpt lat="32.75482" lon="-17.13372">
        <ele>1288.784668</ele>
        <time>2013-05-04T08:31:00Z</time>
      </trkpt>
      <trkpt lat="32.75481" lon="-17.13372">
        <ele>1283.016602</ele>
        <time>2013-05-04T08:31:27Z</time>
      </trkpt>
      <trkpt lat="32.75481" lon="-17.13372">
        <ele>1293.110596</ele>
        <time>2013-05-04T08:31:28Z</time>
      </trkpt>
      <trkpt lat="32.75481" lon="-17.13372">
        <ele>1293.110596</ele>
        <time>2013-05-04T08:31:29Z</time>
      </trkpt>
      <trkpt lat="32.75481" lon="-17.13372">
        <ele>1287.823242</ele>
        <time>2013-05-04T08:31:30Z</time>
      </trkpt>
      <trkpt lat="32.75481" lon="-17.13372">
        <ele>1287.823242</ele>
        <time>2013-05-04T08:31:31Z</time>
      </trkpt>
      <trkpt lat="32.75483" lon="-17.13372">
        <ele>1287.823242</ele>
        <time>2013-05-04T08:32:09Z</time>
      </trkpt>
      <trkpt lat="32.75479" lon="-17.13374">
        <ele>1287.342529</ele>
        <time>2013-05-04T08:32:24Z</time>
      </trkpt>
      <trkpt lat="32.75479" lon="-17.13377">
        <ele>1286.861816</ele>
        <time>2013-05-04T08:32:40Z</time>
      </trkpt>
      <trkpt lat="32.75477" lon="-17.13381">
        <ele>1287.342529</ele>
        <time>2013-05-04T08:32:56Z</time>
      </trkpt>
      <trkpt lat="32.75477" lon="-17.13378">
        <ele>1287.342529</ele>
        <time>2013-05-04T08:33:00Z</time>
      </trkpt>
      <trkpt lat="32.75479" lon="-17.1337">
        <ele>1287.342529</ele>
        <time>2013-05-04T08:33:10Z</time>
      </trkpt>
      <trkpt lat="32.75475" lon="-17.1337">
        <ele>1286.861816</ele>
        <time>2013-05-04T08:33:13Z</time>
      </trkpt>
      <trkpt lat="32.75472" lon="-17.13366">
        <ele>1286.861816</ele>
        <time>2013-05-04T08:33:17Z</time>
      </trkpt>
      <trkpt lat="32.75454" lon="-17.13353">
        <ele>1285.419922</ele>
        <time>2013-05-04T08:33:38Z</time>
      </trkpt>
      <trkpt lat="32.75431" lon="-17.13329">
        <ele>1283.978027</ele>
        <time>2013-05-04T08:34:02Z</time>
      </trkpt>
      <trkpt lat="32.75424" lon="-17.13317">
        <ele>1283.978027</ele>
        <time>2013-05-04T08:34:12Z</time>
      </trkpt>
      <trkpt lat="32.75419" lon="-17.13315">
        <ele>1283.016602</ele>
        <time>2013-05-04T08:34:16Z</time>
      </trkpt>
      <trkpt lat="32.75399" lon="-17.13293">
        <ele>1281.574707</ele>
        <time>2013-05-04T08:34:37Z</time>
      </trkpt>
      <trkpt lat="32.75384" lon="-17.1327">
        <ele>1278.690918</ele>
        <time>2013-05-04T08:34:57Z</time>
      </trkpt>
      <trkpt lat="32.75378" lon="-17.13257">
        <ele>1276.768311</ele>
        <time>2013-05-04T08:35:08Z</time>
      </trkpt>
      <trkpt lat="32.75376" lon="-17.13255">
        <ele>1276.287598</ele>
        <time>2013-05-04T08:35:10Z</time>
      </trkpt>
      <trkpt lat="32.75365" lon="-17.13236">
        <ele>1273.884033</ele>
        <time>2013-05-04T08:35:29Z</time>
      </trkpt>
      <trkpt lat="32.75361" lon="-17.13231">
        <ele>1272.442139</ele>
        <time>2013-05-04T08:35:34Z</time>
      </trkpt>
      <trkpt lat="32.75355" lon="-17.13209">
        <ele>1269.55835</ele>
        <time>2013-05-04T08:35:52Z</time>
      </trkpt>
      <trkpt lat="32.75352" lon="-17.1318">
        <ele>1266.193604</ele>
        <time>2013-05-04T08:36:14Z</time>
      </trkpt>
      <trkpt lat="32.75347" lon="-17.13158">
        <ele>1263.790283</ele>
        <time>2013-05-04T08:36:34Z</time>
      </trkpt>
      <trkpt lat="32.75345" lon="-17.13157">
        <ele>1262.829102</ele>
        <time>2013-05-04T08:36:36Z</time>
      </trkpt>
      <trkpt lat="32.75331" lon="-17.13148">
        <ele>1259.464355</ele>
        <time>2013-05-04T08:36:51Z</time>
      </trkpt>
      <trkpt lat="32.7532" lon="-17.1313">
        <ele>1256.580322</ele>
        <time>2013-05-04T08:37:08Z</time>
      </trkpt>
      <trkpt lat="32.75315" lon="-17.13102">
        <ele>1252.735107</ele>
        <time>2013-05-04T08:37:27Z</time>
      </trkpt>
      <trkpt lat="32.75315" lon="-17.13077">
        <ele>1250.332031</ele>
        <time>2013-05-04T08:37:46Z</time>
      </trkpt>
      <trkpt lat="32.75322" lon="-17.13053">
        <ele>1246.967285</ele>
        <time>2013-05-04T08:38:04Z</time>
      </trkpt>
      <trkpt lat="32.75328" lon="-17.13045">
        <ele>1246.006104</ele>
        <time>2013-05-04T08:38:11Z</time>
      </trkpt>
      <trkpt lat="32.75332" lon="-17.13039">
        <ele>1245.044678</ele>
        <time>2013-05-04T08:38:16Z</time>
      </trkpt>
      <trkpt lat="32.75343" lon="-17.1302">
        <ele>1241.679932</ele>
        <time>2013-05-04T08:38:32Z</time>
      </trkpt>
      <trkpt lat="32.75346" lon="-17.13014">
        <ele>1242.160645</ele>
        <time>2013-05-04T08:38:44Z</time>
      </trkpt>
      <trkpt lat="32.7534" lon="-17.12998">
        <ele>1239.276611</ele>
        <time>2013-05-04T08:38:57Z</time>
      </trkpt>
      <trkpt lat="32.75336" lon="-17.1298">
        <ele>1238.31543</ele>
        <time>2013-05-04T08:39:12Z</time>
      </trkpt>
      <trkpt lat="32.75337" lon="-17.12966">
        <ele>1235.912109</ele>
        <time>2013-05-04T08:39:24Z</time>
      </trkpt>
      <trkpt lat="32.75342" lon="-17.12961">
        <ele>1234.470215</ele>
        <time>2013-05-04T08:39:37Z</time>
      </trkpt>
      <trkpt lat="32.75342" lon="-17.12959">
        <ele>1235.912109</ele>
        <time>2013-05-04T08:40:12Z</time>
      </trkpt>
      <trkpt lat="32.75345" lon="-17.12942">
        <ele>1233.028076</ele>
        <time>2013-05-04T08:40:29Z</time>
      </trkpt>
      <trkpt lat="32.75345" lon="-17.12937">
        <ele>1233.028076</ele>
        <time>2013-05-04T08:40:44Z</time>
      </trkpt>
      <trkpt lat="32.75341" lon="-17.12917">
        <ele>1229.663574</ele>
        <time>2013-05-04T08:40:59Z</time>
      </trkpt>
      <trkpt lat="32.75349" lon="-17.12911">
        <ele>1229.663574</ele>
        <time>2013-05-04T08:41:18Z</time>
      </trkpt>
      <trkpt lat="32.75351" lon="-17.12911">
        <ele>1229.663574</ele>
        <time>2013-05-04T08:41:20Z</time>
      </trkpt>
      <trkpt lat="32.75355" lon="-17.12913">
        <ele>1230.144287</ele>
        <time>2013-05-04T08:41:23Z</time>
      </trkpt>
      <trkpt lat="32.75361" lon="-17.12939">
        <ele>1232.066895</ele>
        <time>2013-05-04T08:41:42Z</time>
      </trkpt>
      <trkpt lat="32.75365" lon="-17.1296">
        <ele>1233.028076</ele>
        <time>2013-05-04T08:42:01Z</time>
      </trkpt>
      <trkpt lat="32.75385" lon="-17.12981">
        <ele>1231.105713</ele>
        <time>2013-05-04T08:42:21Z</time>
      </trkpt>
      <trkpt lat="32.75392" lon="-17.12983">
        <ele>1230.625</ele>
        <time>2013-05-04T08:42:27Z</time>
      </trkpt>
      <trkpt lat="32.75396" lon="-17.12986">
        <ele>1229.663574</ele>
        <time>2013-05-04T08:42:31Z</time>
      </trkpt>
      <trkpt lat="32.75407" lon="-17.13018">
        <ele>1227.260254</ele>
        <time>2013-05-04T08:42:53Z</time>
      </trkpt>
      <trkpt lat="32.75412" lon="-17.13044">
        <ele>1223.895508</ele>
        <time>2013-05-04T08:43:10Z</time>
      </trkpt>
      <trkpt lat="32.75421" lon="-17.13052">
        <ele>1221.011719</ele>
        <time>2013-05-04T08:43:19Z</time>
      </trkpt>
      <trkpt lat="32.75426" lon="-17.13052">
        <ele>1221.011719</ele>
        <time>2013-05-04T08:43:23Z</time>
      </trkpt>
      <trkpt lat="32.75434" lon="-17.13045">
        <ele>1219.089111</ele>
        <time>2013-05-04T08:43:31Z</time>
      </trkpt>
      <trkpt lat="32.75453" lon="-17.13048">
        <ele>1217.166504</ele>
        <time>2013-05-04T08:43:46Z</time>
      </trkpt>
      <trkpt lat="32.75462" lon="-17.13054">
        <ele>1216.685791</ele>
        <time>2013-05-04T08:43:53Z</time>
      </trkpt>
      <trkpt lat="32.75481" lon="-17.13075">
        <ele>1216.205078</ele>
        <time>2013-05-04T08:44:12Z</time>
      </trkpt>
      <trkpt lat="32.75498" lon="-17.1309">
        <ele>1213.321289</ele>
        <time>2013-05-04T08:44:28Z</time>
      </trkpt>
      <trkpt lat="32.75506" lon="-17.13096">
        <ele>1210.917725</ele>
        <time>2013-05-04T08:44:36Z</time>
      </trkpt>
      <trkpt lat="32.75525" lon="-17.13102">
        <ele>1208.995117</ele>
        <time>2013-05-04T08:44:52Z</time>
      </trkpt>
      <trkpt lat="32.75537" lon="-17.13108">
        <ele>1206.111084</ele>
        <time>2013-05-04T08:45:03Z</time>
      </trkpt>
      <trkpt lat="32.75552" lon="-17.13121">
        <ele>1202.746582</ele>
        <time>2013-05-04T08:45:18Z</time>
      </trkpt>
      <trkpt lat="32.75573" lon="-17.13135">
        <ele>1201.304688</ele>
        <time>2013-05-04T08:45:36Z</time>
      </trkpt>
      <trkpt lat="32.75591" lon="-17.13133">
        <ele>1197.459473</ele>
        <time>2013-05-04T08:45:51Z</time>
      </trkpt>
      <trkpt lat="32.75609" lon="-17.13118">
        <ele>1197.459473</ele>
        <time>2013-05-04T08:46:07Z</time>
      </trkpt>
      <trkpt lat="32.75617" lon="-17.13111">
        <ele>1196.017578</ele>
        <time>2013-05-04T08:46:15Z</time>
      </trkpt>
      <trkpt lat="32.75645" lon="-17.13123">
        <ele>1194.094727</ele>
        <time>2013-05-04T08:46:34Z</time>
      </trkpt>
      <trkpt lat="32.75665" lon="-17.13128">
        <ele>1190.72998</ele>
        <time>2013-05-04T08:46:50Z</time>
      </trkpt>
      <trkpt lat="32.75686" lon="-17.13132">
        <ele>1188.326904</ele>
        <time>2013-05-04T08:47:06Z</time>
      </trkpt>
      <trkpt lat="32.75692" lon="-17.13134">
        <ele>1186.884766</ele>
        <time>2013-05-04T08:47:11Z</time>
      </trkpt>
      <trkpt lat="32.75713" lon="-17.13131">
        <ele>1184.481689</ele>
        <time>2013-05-04T08:47:27Z</time>
      </trkpt>
      <trkpt lat="32.75724" lon="-17.13127">
        <ele>1183.520264</ele>
        <time>2013-05-04T08:47:36Z</time>
      </trkpt>
      <trkpt lat="32.75738" lon="-17.13147">
        <ele>1179.674805</ele>
        <time>2013-05-04T08:47:53Z</time>
      </trkpt>
      <trkpt lat="32.75754" lon="-17.13166">
        <ele>1177.271729</ele>
        <time>2013-05-04T08:48:11Z</time>
      </trkpt>
      <trkpt lat="32.75777" lon="-17.13169">
        <ele>1173.906982</ele>
        <time>2013-05-04T08:48:30Z</time>
      </trkpt>
      <trkpt lat="32.75792" lon="-17.13163">
        <ele>1171.023193</ele>
        <time>2013-05-04T08:48:43Z</time>
      </trkpt>
      <trkpt lat="32.75805" lon="-17.13181">
        <ele>1169.581299</ele>
        <time>2013-05-04T08:48:58Z</time>
      </trkpt>
      <trkpt lat="32.75808" lon="-17.13203">
        <ele>1166.216553</ele>
        <time>2013-05-04T08:49:12Z</time>
      </trkpt>
      <trkpt lat="32.75809" lon="-17.13209">
        <ele>1164.774658</ele>
        <time>2013-05-04T08:49:16Z</time>
      </trkpt>
      <trkpt lat="32.75819" lon="-17.13221">
        <ele>1161.409912</ele>
        <time>2013-05-04T08:49:26Z</time>
      </trkpt>
      <trkpt lat="32.75833" lon="-17.13221">
        <ele>1159.967773</ele>
        <time>2013-05-04T08:49:37Z</time>
      </trkpt>
      <trkpt lat="32.75842" lon="-17.13224">
        <ele>1157.083984</ele>
        <time>2013-05-04T08:49:45Z</time>
      </trkpt>
      <trkpt lat="32.75858" lon="-17.13234">
        <ele>1154.200195</ele>
        <time>2013-05-04T08:49:58Z</time>
      </trkpt>
      <trkpt lat="32.75883" lon="-17.13245">
        <ele>1150.835449</ele>
        <time>2013-05-04T08:50:17Z</time>
      </trkpt>
      <trkpt lat="32.75898" lon="-17.13261">
        <ele>1147.470703</ele>
        <time>2013-05-04T08:50:31Z</time>
      </trkpt>
      <trkpt lat="32.759" lon="-17.13263">
        <ele>1146.509521</ele>
        <time>2013-05-04T08:50:33Z</time>
      </trkpt>
      <trkpt lat="32.75914" lon="-17.13282">
        <ele>1143.144775</ele>
        <time>2013-05-04T08:50:49Z</time>
      </trkpt>
      <trkpt lat="32.75935" lon="-17.13292">
        <ele>1139.780273</ele>
        <time>2013-05-04T08:51:07Z</time>
      </trkpt>
      <trkpt lat="32.75941" lon="-17.13295">
        <ele>1138.338379</ele>
        <time>2013-05-04T08:51:12Z</time>
      </trkpt>
      <trkpt lat="32.7596" lon="-17.13305">
        <ele>1136.89624</ele>
        <time>2013-05-04T08:51:27Z</time>
      </trkpt>
      <trkpt lat="32.75976" lon="-17.13308">
        <ele>1133.531738</ele>
        <time>2013-05-04T08:51:39Z</time>
      </trkpt>
      <trkpt lat="32.75998" lon="-17.13315">
        <ele>1130.166992</ele>
        <time>2013-05-04T08:51:55Z</time>
      </trkpt>
      <trkpt lat="32.76011" lon="-17.13324">
        <ele>1127.763672</ele>
        <time>2013-05-04T08:52:07Z</time>
      </trkpt>
      <trkpt lat="32.76028" lon="-17.13338">
        <ele>1124.39917</ele>
        <time>2013-05-04T08:52:23Z</time>
      </trkpt>
      <trkpt lat="32.76047" lon="-17.13343">
        <ele>1121.034668</ele>
        <time>2013-05-04T08:52:37Z</time>
      </trkpt>
      <trkpt lat="32.76064" lon="-17.13349">
        <ele>1118.150635</ele>
        <time>2013-05-04T08:52:50Z</time>
      </trkpt>
      <trkpt lat="32.7609" lon="-17.13358">
        <ele>1115.747314</ele>
        <time>2013-05-04T08:53:09Z</time>
      </trkpt>
      <trkpt lat="32.76093" lon="-17.13358">
        <ele>1114.785889</ele>
        <time>2013-05-04T08:53:11Z</time>
      </trkpt>
      <trkpt lat="32.76109" lon="-17.1336">
        <ele>1111.421387</ele>
        <time>2013-05-04T08:53:23Z</time>
      </trkpt>
      <trkpt lat="32.76116" lon="-17.13359">
        <ele>1109.979248</ele>
        <time>2013-05-04T08:53:28Z</time>
      </trkpt>
      <trkpt lat="32.76132" lon="-17.13342">
        <ele>1107.095459</ele>
        <time>2013-05-04T08:53:45Z</time>
      </trkpt>
      <trkpt lat="32.76153" lon="-17.13324">
        <ele>1104.21167</ele>
        <time>2013-05-04T08:54:03Z</time>
      </trkpt>
      <trkpt lat="32.76168" lon="-17.1331">
        <ele>1100.846924</ele>
        <time>2013-05-04T08:54:17Z</time>
      </trkpt>
      <trkpt lat="32.76193" lon="-17.13304">
        <ele>1098.443359</ele>
        <time>2013-05-04T08:54:34Z</time>
      </trkpt>
      <trkpt lat="32.76211" lon="-17.13298">
        <ele>1095.55957</ele>
        <time>2013-05-04T08:54:49Z</time>
      </trkpt>
      <trkpt lat="32.76216" lon="-17.13292">
        <ele>1094.598145</ele>
        <time>2013-05-04T08:55:04Z</time>
      </trkpt>
      <trkpt lat="32.76225" lon="-17.13276">
        <ele>1092.195068</ele>
        <time>2013-05-04T08:55:17Z</time>
      </trkpt>
      <trkpt lat="32.76231" lon="-17.13278">
        <ele>1091.714355</ele>
        <time>2013-05-04T08:55:23Z</time>
      </trkpt>
      <trkpt lat="32.76232" lon="-17.13282">
        <ele>1090.272461</ele>
        <time>2013-05-04T08:55:26Z</time>
      </trkpt>
      <trkpt lat="32.7623" lon="-17.13287">
        <ele>1089.791748</ele>
        <time>2013-05-04T08:55:30Z</time>
      </trkpt>
      <trkpt lat="32.76223" lon="-17.13296">
        <ele>1088.830566</ele>
        <time>2013-05-04T08:55:44Z</time>
      </trkpt>
      <trkpt lat="32.76212" lon="-17.13308">
        <ele>1085.46582</ele>
        <time>2013-05-04T08:55:56Z</time>
      </trkpt>
      <trkpt lat="32.76199" lon="-17.1332">
        <ele>1084.504639</ele>
        <time>2013-05-04T08:56:09Z</time>
      </trkpt>
      <trkpt lat="32.7619" lon="-17.13327">
        <ele>1082.581787</ele>
        <time>2013-05-04T08:56:18Z</time>
      </trkpt>
      <trkpt lat="32.76184" lon="-17.1334">
        <ele>1081.139893</ele>
        <time>2013-05-04T08:56:26Z</time>
      </trkpt>
      <trkpt lat="32.76181" lon="-17.13345">
        <ele>1079.697754</ele>
        <time>2013-05-04T08:56:29Z</time>
      </trkpt>
      <trkpt lat="32.76171" lon="-17.13362">
        <ele>1077.294678</ele>
        <time>2013-05-04T08:56:41Z</time>
      </trkpt>
      <trkpt lat="32.76168" lon="-17.13386">
        <ele>1074.410645</ele>
        <time>2013-05-04T08:56:57Z</time>
      </trkpt>
      <trkpt lat="32.76167" lon="-17.13397">
        <ele>1072.96875</ele>
        <time>2013-05-04T08:57:04Z</time>
      </trkpt>
      <trkpt lat="32.76166" lon="-17.13406">
        <ele>1072.488037</ele>
        <time>2013-05-04T08:57:10Z</time>
      </trkpt>
      <trkpt lat="32.76164" lon="-17.13426">
        <ele>1070.084717</ele>
        <time>2013-05-04T08:57:27Z</time>
      </trkpt>
      <trkpt lat="32.76164" lon="-17.13435">
        <ele>1070.084717</ele>
        <time>2013-05-04T08:57:33Z</time>
      </trkpt>
      <trkpt lat="32.76165" lon="-17.13446">
        <ele>1069.123535</ele>
        <time>2013-05-04T08:57:49Z</time>
      </trkpt>
      <trkpt lat="32.76165" lon="-17.13445">
        <ele>1068.642822</ele>
        <time>2013-05-04T08:57:52Z</time>
      </trkpt>
      <trkpt lat="32.76165" lon="-17.13441">
        <ele>1069.123535</ele>
        <time>2013-05-04T08:58:00Z</time>
      </trkpt>
      <trkpt lat="32.76163" lon="-17.13442">
        <ele>1068.642822</ele>
        <time>2013-05-04T08:58:02Z</time>
      </trkpt>
      <trkpt lat="32.76161" lon="-17.13445">
        <ele>1069.123535</ele>
        <time>2013-05-04T08:58:09Z</time>
      </trkpt>
      <trkpt lat="32.76167" lon="-17.13438">
        <ele>1068.642822</ele>
        <time>2013-05-04T08:58:23Z</time>
      </trkpt>
      <trkpt lat="32.76169" lon="-17.13429">
        <ele>1068.162109</ele>
        <time>2013-05-04T08:58:29Z</time>
      </trkpt>
      <trkpt lat="32.76171" lon="-17.1342">
        <ele>1068.162109</ele>
        <time>2013-05-04T08:58:35Z</time>
      </trkpt>
      <trkpt lat="32.76174" lon="-17.13411">
        <ele>1068.162109</ele>
        <time>2013-05-04T08:58:42Z</time>
      </trkpt>
      <trkpt lat="32.76174" lon="-17.13402">
        <ele>1068.642822</ele>
        <time>2013-05-04T08:58:49Z</time>
      </trkpt>
      <trkpt lat="32.76177" lon="-17.13389">
        <ele>1063.355469</ele>
        <time>2013-05-04T08:58:59Z</time>
      </trkpt>
      <trkpt lat="32.76178" lon="-17.13388">
        <ele>1066.719971</ele>
        <time>2013-05-04T08:59:00Z</time>
      </trkpt>
      <trkpt lat="32.76179" lon="-17.13387">
        <ele>1067.681152</ele>
        <time>2013-05-04T08:59:02Z</time>
      </trkpt>
      <trkpt lat="32.76189" lon="-17.1338">
        <ele>1064.31665</ele>
        <time>2013-05-04T08:59:11Z</time>
      </trkpt>
      <trkpt lat="32.76195" lon="-17.13361">
        <ele>1062.394043</ele>
        <time>2013-05-04T08:59:22Z</time>
      </trkpt>
      <trkpt lat="32.76201" lon="-17.13355">
        <ele>1061.913574</ele>
        <time>2013-05-04T08:59:28Z</time>
      </trkpt>
      <trkpt lat="32.76206" lon="-17.13352">
        <ele>1061.432861</ele>
        <time>2013-05-04T08:59:33Z</time>
      </trkpt>
      <trkpt lat="32.76215" lon="-17.13347">
        <ele>1059.029541</ele>
        <time>2013-05-04T08:59:41Z</time>
      </trkpt>
      <trkpt lat="32.76234" lon="-17.13346">
        <ele>1057.106934</ele>
        <time>2013-05-04T08:59:54Z</time>
      </trkpt>
      <trkpt lat="32.76251" lon="-17.13327">
        <ele>1057.587646</ele>
        <time>2013-05-04T09:00:09Z</time>
      </trkpt>
      <trkpt lat="32.76271" lon="-17.1332">
        <ele>1056.145508</ele>
        <time>2013-05-04T09:00:25Z</time>
      </trkpt>
      <trkpt lat="32.76274" lon="-17.13318">
        <ele>1054.703613</ele>
        <time>2013-05-04T09:00:28Z</time>
      </trkpt>
      <trkpt lat="32.76278" lon="-17.13311">
        <ele>1053.261719</ele>
        <time>2013-05-04T09:00:34Z</time>
      </trkpt>
      <trkpt lat="32.76288" lon="-17.13291">
        <ele>1049.896973</ele>
        <time>2013-05-04T09:00:51Z</time>
      </trkpt>
      <trkpt lat="32.76294" lon="-17.13279">
        <ele>1046.532471</ele>
        <time>2013-05-04T09:01:02Z</time>
      </trkpt>
      <trkpt lat="32.76298" lon="-17.13263">
        <ele>1044.12915</ele>
        <time>2013-05-04T09:01:17Z</time>
      </trkpt>
      <trkpt lat="32.76298" lon="-17.13258">
        <ele>1043.167725</ele>
        <time>2013-05-04T09:01:29Z</time>
      </trkpt>
      <trkpt lat="32.76294" lon="-17.13234">
        <ele>1040.764404</ele>
        <time>2013-05-04T09:01:46Z</time>
      </trkpt>
      <trkpt lat="32.76293" lon="-17.13226">
        <ele>1041.245117</ele>
        <time>2013-05-04T09:01:51Z</time>
      </trkpt>
      <trkpt lat="32.76281" lon="-17.13207">
        <ele>1041.245117</ele>
        <time>2013-05-04T09:02:05Z</time>
      </trkpt>
      <trkpt lat="32.76279" lon="-17.13202">
        <ele>1041.72583</ele>
        <time>2013-05-04T09:02:09Z</time>
      </trkpt>
      <trkpt lat="32.76275" lon="-17.13196">
        <ele>1041.245117</ele>
        <time>2013-05-04T09:02:14Z</time>
      </trkpt>
      <trkpt lat="32.76263" lon="-17.13189">
        <ele>1041.72583</ele>
        <time>2013-05-04T09:02:22Z</time>
      </trkpt>
      <trkpt lat="32.76246" lon="-17.13175">
        <ele>1040.764404</ele>
        <time>2013-05-04T09:02:36Z</time>
      </trkpt>
      <trkpt lat="32.76244" lon="-17.13174">
        <ele>1040.764404</ele>
        <time>2013-05-04T09:02:38Z</time>
      </trkpt>
      <trkpt lat="32.76236" lon="-17.13164">
        <ele>1041.72583</ele>
        <time>2013-05-04T09:02:51Z</time>
      </trkpt>
      <trkpt lat="32.76228" lon="-17.13153">
        <ele>1041.72583</ele>
        <time>2013-05-04T09:03:03Z</time>
      </trkpt>
      <trkpt lat="32.76224" lon="-17.1313">
        <ele>1041.72583</ele>
        <time>2013-05-04T09:03:18Z</time>
      </trkpt>
      <trkpt lat="32.76218" lon="-17.1311">
        <ele>1041.72583</ele>
        <time>2013-05-04T09:03:31Z</time>
      </trkpt>
      <trkpt lat="32.76207" lon="-17.13099">
        <ele>1041.72583</ele>
        <time>2013-05-04T09:03:41Z</time>
      </trkpt>
      <trkpt lat="32.762" lon="-17.13092">
        <ele>1041.72583</ele>
        <time>2013-05-04T09:03:48Z</time>
      </trkpt>
      <trkpt lat="32.76199" lon="-17.13065">
        <ele>1041.72583</ele>
        <time>2013-05-04T09:04:03Z</time>
      </trkpt>
      <trkpt lat="32.76197" lon="-17.13057">
        <ele>1041.245117</ele>
        <time>2013-05-04T09:04:08Z</time>
      </trkpt>
      <trkpt lat="32.76186" lon="-17.1304">
        <ele>1041.245117</ele>
        <time>2013-05-04T09:04:22Z</time>
      </trkpt>
      <trkpt lat="32.7618" lon="-17.13026">
        <ele>1041.72583</ele>
        <time>2013-05-04T09:04:32Z</time>
      </trkpt>
      <trkpt lat="32.76173" lon="-17.13008">
        <ele>1041.245117</ele>
        <time>2013-05-04T09:04:43Z</time>
      </trkpt>
      <trkpt lat="32.76163" lon="-17.12988">
        <ele>1041.245117</ele>
        <time>2013-05-04T09:04:57Z</time>
      </trkpt>
      <trkpt lat="32.76155" lon="-17.12979">
        <ele>1041.72583</ele>
        <time>2013-05-04T09:05:05Z</time>
      </trkpt>
      <trkpt lat="32.76151" lon="-17.12954">
        <ele>1041.72583</ele>
        <time>2013-05-04T09:05:18Z</time>
      </trkpt>
      <trkpt lat="32.76149" lon="-17.12931">
        <ele>1041.245117</ele>
        <time>2013-05-04T09:05:32Z</time>
      </trkpt>
      <trkpt lat="32.76148" lon="-17.1292">
        <ele>1041.245117</ele>
        <time>2013-05-04T09:05:38Z</time>
      </trkpt>
      <trkpt lat="32.76153" lon="-17.12922">
        <ele>1040.764404</ele>
        <time>2013-05-04T09:05:41Z</time>
      </trkpt>
      <trkpt lat="32.76142" lon="-17.12888">
        <ele>1040.764404</ele>
        <time>2013-05-04T09:05:57Z</time>
      </trkpt>
      <trkpt lat="32.76138" lon="-17.12879">
        <ele>1040.764404</ele>
        <time>2013-05-04T09:06:03Z</time>
      </trkpt>
      <trkpt lat="32.76133" lon="-17.12861">
        <ele>1040.283936</ele>
        <time>2013-05-04T09:06:13Z</time>
      </trkpt>
      <trkpt lat="32.76125" lon="-17.12843">
        <ele>1040.764404</ele>
        <time>2013-05-04T09:06:25Z</time>
      </trkpt>
      <trkpt lat="32.76115" lon="-17.12818">
        <ele>1040.764404</ele>
        <time>2013-05-04T09:06:42Z</time>
      </trkpt>
      <trkpt lat="32.76114" lon="-17.12817">
        <ele>1042.206543</ele>
        <time>2013-05-04T09:06:43Z</time>
      </trkpt>
      <trkpt lat="32.76105" lon="-17.12813">
        <ele>1041.245117</ele>
        <time>2013-05-04T09:06:49Z</time>
      </trkpt>
      <trkpt lat="32.76098" lon="-17.12809">
        <ele>1041.245117</ele>
        <time>2013-05-04T09:06:54Z</time>
      </trkpt>
      <trkpt lat="32.76095" lon="-17.12797">
        <ele>1041.72583</ele>
        <time>2013-05-04T09:07:03Z</time>
      </trkpt>
      <trkpt lat="32.76097" lon="-17.12786">
        <ele>1041.72583</ele>
        <time>2013-05-04T09:07:15Z</time>
      </trkpt>
      <trkpt lat="32.761" lon="-17.12788">
        <ele>1041.245117</ele>
        <time>2013-05-04T09:07:30Z</time>
      </trkpt>
      <trkpt lat="32.761" lon="-17.12788">
        <ele>1041.245117</ele>
        <time>2013-05-04T09:07:34Z</time>
      </trkpt>
      <trkpt lat="32.761" lon="-17.12781">
        <ele>1040.764404</ele>
        <time>2013-05-04T09:07:39Z</time>
      </trkpt>
      <trkpt lat="32.76106" lon="-17.12752">
        <ele>1040.764404</ele>
        <time>2013-05-04T09:07:55Z</time>
      </trkpt>
      <trkpt lat="32.76104" lon="-17.12744">
        <ele>1039.32251</ele>
        <time>2013-05-04T09:08:00Z</time>
      </trkpt>
      <trkpt lat="32.76104" lon="-17.12737">
        <ele>1043.648438</ele>
        <time>2013-05-04T09:08:05Z</time>
      </trkpt>
      <trkpt lat="32.76105" lon="-17.12735">
        <ele>1038.842041</ele>
        <time>2013-05-04T09:08:06Z</time>
      </trkpt>
      <trkpt lat="32.76106" lon="-17.12732">
        <ele>1044.609619</ele>
        <time>2013-05-04T09:08:08Z</time>
      </trkpt>
      <trkpt lat="32.76107" lon="-17.1273">
        <ele>1038.842041</ele>
        <time>2013-05-04T09:08:09Z</time>
      </trkpt>
      <trkpt lat="32.76107" lon="-17.12727">
        <ele>1043.167725</ele>
        <time>2013-05-04T09:08:11Z</time>
      </trkpt>
      <trkpt lat="32.76107" lon="-17.12717">
        <ele>1037.399902</ele>
        <time>2013-05-04T09:08:17Z</time>
      </trkpt>
      <trkpt lat="32.76107" lon="-17.12716">
        <ele>1041.72583</ele>
        <time>2013-05-04T09:08:18Z</time>
      </trkpt>
      <trkpt lat="32.76106" lon="-17.12714">
        <ele>1045.090332</ele>
        <time>2013-05-04T09:08:19Z</time>
      </trkpt>
      <trkpt lat="32.76106" lon="-17.12713">
        <ele>1041.72583</ele>
        <time>2013-05-04T09:08:20Z</time>
      </trkpt>
      <trkpt lat="32.76104" lon="-17.1271">
        <ele>1041.245117</ele>
        <time>2013-05-04T09:08:22Z</time>
      </trkpt>
      <trkpt lat="32.761" lon="-17.12701">
        <ele>1041.245117</ele>
        <time>2013-05-04T09:08:29Z</time>
      </trkpt>
      <trkpt lat="32.76096" lon="-17.12691">
        <ele>1041.245117</ele>
        <time>2013-05-04T09:08:36Z</time>
      </trkpt>
      <trkpt lat="32.76096" lon="-17.12663">
        <ele>1040.764404</ele>
        <time>2013-05-04T09:08:50Z</time>
      </trkpt>
      <trkpt lat="32.76092" lon="-17.12645">
        <ele>1040.764404</ele>
        <time>2013-05-04T09:09:02Z</time>
      </trkpt>
      <trkpt lat="32.76087" lon="-17.12633">
        <ele>1040.764404</ele>
        <time>2013-05-04T09:09:12Z</time>
      </trkpt>
      <trkpt lat="32.76085" lon="-17.12605">
        <ele>1041.72583</ele>
        <time>2013-05-04T09:09:27Z</time>
      </trkpt>
      <trkpt lat="32.76081" lon="-17.12584">
        <ele>1041.245117</ele>
        <time>2013-05-04T09:09:39Z</time>
      </trkpt>
      <trkpt lat="32.76071" lon="-17.12564">
        <ele>1041.245117</ele>
        <time>2013-05-04T09:09:51Z</time>
      </trkpt>
      <trkpt lat="32.76063" lon="-17.12539">
        <ele>1041.245117</ele>
        <time>2013-05-04T09:10:06Z</time>
      </trkpt>
      <trkpt lat="32.76064" lon="-17.12522">
        <ele>1042.206543</ele>
        <time>2013-05-04T09:10:17Z</time>
      </trkpt>
      <trkpt lat="32.76064" lon="-17.12515">
        <ele>1041.245117</ele>
        <time>2013-05-04T09:10:21Z</time>
      </trkpt>
      <trkpt lat="32.76056" lon="-17.12491">
        <ele>1041.245117</ele>
        <time>2013-05-04T09:10:37Z</time>
      </trkpt>
      <trkpt lat="32.76056" lon="-17.1249">
        <ele>1041.245117</ele>
        <time>2013-05-04T09:10:38Z</time>
      </trkpt>
      <trkpt lat="32.76054" lon="-17.12479">
        <ele>1041.245117</ele>
        <time>2013-05-04T09:10:48Z</time>
      </trkpt>
      <trkpt lat="32.76054" lon="-17.12478">
        <ele>1041.72583</ele>
        <time>2013-05-04T09:10:49Z</time>
      </trkpt>
      <trkpt lat="32.76054" lon="-17.12457">
        <ele>1041.245117</ele>
        <time>2013-05-04T09:11:05Z</time>
      </trkpt>
      <trkpt lat="32.76057" lon="-17.12447">
        <ele>1041.245117</ele>
        <time>2013-05-04T09:11:18Z</time>
      </trkpt>
      <trkpt lat="32.76051" lon="-17.12442">
        <ele>1041.72583</ele>
        <time>2013-05-04T09:11:38Z</time>
      </trkpt>
      <trkpt lat="32.76051" lon="-17.12437">
        <ele>1041.245117</ele>
        <time>2013-05-04T09:11:46Z</time>
      </trkpt>
      <trkpt lat="32.7604" lon="-17.12422">
        <ele>1042.206543</ele>
        <time>2013-05-04T09:12:00Z</time>
      </trkpt>
      <trkpt lat="32.76022" lon="-17.12412">
        <ele>1042.206543</ele>
        <time>2013-05-04T09:12:16Z</time>
      </trkpt>
      <trkpt lat="32.76014" lon="-17.12395">
        <ele>1042.687256</ele>
        <time>2013-05-04T09:12:28Z</time>
      </trkpt>
      <trkpt lat="32.76003" lon="-17.12375">
        <ele>1043.167725</ele>
        <time>2013-05-04T09:12:49Z</time>
      </trkpt>
      <trkpt lat="32.76005" lon="-17.12367">
        <ele>1043.167725</ele>
        <time>2013-05-04T09:12:57Z</time>
      </trkpt>
      <trkpt lat="32.7601" lon="-17.12352">
        <ele>1043.648438</ele>
        <time>2013-05-04T09:13:10Z</time>
      </trkpt>
      <trkpt lat="32.76023" lon="-17.12336">
        <ele>1045.090332</ele>
        <time>2013-05-04T09:13:22Z</time>
      </trkpt>
      <trkpt lat="32.76047" lon="-17.12318">
        <ele>1046.051758</ele>
        <time>2013-05-04T09:13:45Z</time>
      </trkpt>
      <trkpt lat="32.76067" lon="-17.12316">
        <ele>1047.493652</ele>
        <time>2013-05-04T09:14:09Z</time>
      </trkpt>
      <trkpt lat="32.76075" lon="-17.1233">
        <ele>1048.454834</ele>
        <time>2013-05-04T09:14:26Z</time>
      </trkpt>
      <trkpt lat="32.76074" lon="-17.12342">
        <ele>1047.974365</ele>
        <time>2013-05-04T09:14:43Z</time>
      </trkpt>
      <trkpt lat="32.76077" lon="-17.12343">
        <ele>1047.974365</ele>
        <time>2013-05-04T09:14:51Z</time>
      </trkpt>
      <trkpt lat="32.76086" lon="-17.12341">
        <ele>1047.974365</ele>
        <time>2013-05-04T09:15:02Z</time>
      </trkpt>
      <trkpt lat="32.7609" lon="-17.12343">
        <ele>1047.012939</ele>
        <time>2013-05-04T09:15:09Z</time>
      </trkpt>
      <trkpt lat="32.76103" lon="-17.12345">
        <ele>1047.012939</ele>
        <time>2013-05-04T09:15:21Z</time>
      </trkpt>
      <trkpt lat="32.76111" lon="-17.12359">
        <ele>1047.974365</ele>
        <time>2013-05-04T09:15:35Z</time>
      </trkpt>
      <trkpt lat="32.76123" lon="-17.12377">
        <ele>1047.974365</ele>
        <time>2013-05-04T09:15:51Z</time>
      </trkpt>
      <trkpt lat="32.76132" lon="-17.12394">
        <ele>1047.493652</ele>
        <time>2013-05-04T09:16:03Z</time>
      </trkpt>
      <trkpt lat="32.76141" lon="-17.12408">
        <ele>1047.974365</ele>
        <time>2013-05-04T09:16:16Z</time>
      </trkpt>
      <trkpt lat="32.76142" lon="-17.12435">
        <ele>1048.935547</ele>
        <time>2013-05-04T09:16:31Z</time>
      </trkpt>
      <trkpt lat="32.76145" lon="-17.12438">
        <ele>1049.41626</ele>
        <time>2013-05-04T09:16:35Z</time>
      </trkpt>
      <trkpt lat="32.76143" lon="-17.1245">
        <ele>1051.338867</ele>
        <time>2013-05-04T09:16:47Z</time>
      </trkpt>
      <trkpt lat="32.76126" lon="-17.1247">
        <ele>1053.261719</ele>
        <time>2013-05-04T09:17:02Z</time>
      </trkpt>
      <trkpt lat="32.76126" lon="-17.12472">
        <ele>1052.781006</ele>
        <time>2013-05-04T09:17:03Z</time>
      </trkpt>
      <trkpt lat="32.76085" lon="-17.12507">
        <ele>1053.742432</ele>
        <time>2013-05-04T09:17:12Z</time>
      </trkpt>
      <trkpt lat="32.76075" lon="-17.12525">
        <ele>1053.742432</ele>
        <time>2013-05-04T09:17:22Z</time>
      </trkpt>
      <trkpt lat="32.76072" lon="-17.12531">
        <ele>1053.742432</ele>
        <time>2013-05-04T09:17:26Z</time>
      </trkpt>
      <trkpt lat="32.76067" lon="-17.12552">
        <ele>1054.223145</ele>
        <time>2013-05-04T09:17:38Z</time>
      </trkpt>
      <trkpt lat="32.76064" lon="-17.1257">
        <ele>1053.742432</ele>
        <time>2013-05-04T09:17:48Z</time>
      </trkpt>
      <trkpt lat="32.76072" lon="-17.12585">
        <ele>1053.261719</ele>
        <time>2013-05-04T09:17:59Z</time>
      </trkpt>
      <trkpt lat="32.76078" lon="-17.12599">
        <ele>1053.261719</ele>
        <time>2013-05-04T09:18:11Z</time>
      </trkpt>
      <trkpt lat="32.76078" lon="-17.12615">
        <ele>1053.261719</ele>
        <time>2013-05-04T09:18:22Z</time>
      </trkpt>
      <trkpt lat="32.76081" lon="-17.12632">
        <ele>1052.300293</ele>
        <time>2013-05-04T09:18:35Z</time>
      </trkpt>
      <trkpt lat="32.76088" lon="-17.12651">
        <ele>1051.81958</ele>
        <time>2013-05-04T09:18:50Z</time>
      </trkpt>
      <trkpt lat="32.76088" lon="-17.12654">
        <ele>1052.300293</ele>
        <time>2013-05-04T09:18:52Z</time>
      </trkpt>
      <trkpt lat="32.76087" lon="-17.12672">
        <ele>1052.300293</ele>
        <time>2013-05-04T09:19:03Z</time>
      </trkpt>
      <trkpt lat="32.76085" lon="-17.12688">
        <ele>1052.300293</ele>
        <time>2013-05-04T09:19:14Z</time>
      </trkpt>
      <trkpt lat="32.76088" lon="-17.12693">
        <ele>1052.300293</ele>
        <time>2013-05-04T09:19:18Z</time>
      </trkpt>
      <trkpt lat="32.76096" lon="-17.12708">
        <ele>1052.781006</ele>
        <time>2013-05-04T09:19:29Z</time>
      </trkpt>
      <trkpt lat="32.761" lon="-17.12732">
        <ele>1052.781006</ele>
        <time>2013-05-04T09:19:43Z</time>
      </trkpt>
      <trkpt lat="32.761" lon="-17.12736">
        <ele>1051.81958</ele>
        <time>2013-05-04T09:19:46Z</time>
      </trkpt>
      <trkpt lat="32.761" lon="-17.12758">
        <ele>1052.781006</ele>
        <time>2013-05-04T09:20:00Z</time>
      </trkpt>
      <trkpt lat="32.76098" lon="-17.12768">
        <ele>1052.300293</ele>
        <time>2013-05-04T09:20:06Z</time>
      </trkpt>
      <trkpt lat="32.76096" lon="-17.12771">
        <ele>1052.781006</ele>
        <time>2013-05-04T09:20:09Z</time>
      </trkpt>
      <trkpt lat="32.76095" lon="-17.12781">
        <ele>1053.261719</ele>
        <time>2013-05-04T09:20:15Z</time>
      </trkpt>
      <trkpt lat="32.76088" lon="-17.12798">
        <ele>1053.261719</ele>
        <time>2013-05-04T09:20:27Z</time>
      </trkpt>
      <trkpt lat="32.76089" lon="-17.12805">
        <ele>1052.781006</ele>
        <time>2013-05-04T09:20:33Z</time>
      </trkpt>
      <trkpt lat="32.76101" lon="-17.12815">
        <ele>1053.261719</ele>
        <time>2013-05-04T09:20:45Z</time>
      </trkpt>
      <trkpt lat="32.76106" lon="-17.12817">
        <ele>1052.781006</ele>
        <time>2013-05-04T09:20:49Z</time>
      </trkpt>
      <trkpt lat="32.76109" lon="-17.12816">
        <ele>1052.781006</ele>
        <time>2013-05-04T09:20:56Z</time>
      </trkpt>
      <trkpt lat="32.76117" lon="-17.12835">
        <ele>1052.300293</ele>
        <time>2013-05-04T09:21:10Z</time>
      </trkpt>
      <trkpt lat="32.76121" lon="-17.12852">
        <ele>1052.300293</ele>
        <time>2013-05-04T09:21:22Z</time>
      </trkpt>
      <trkpt lat="32.76128" lon="-17.12873">
        <ele>1052.300293</ele>
        <time>2013-05-04T09:21:35Z</time>
      </trkpt>
      <trkpt lat="32.76129" lon="-17.12875">
        <ele>1052.300293</ele>
        <time>2013-05-04T09:21:37Z</time>
      </trkpt>
      <trkpt lat="32.76133" lon="-17.12882">
        <ele>1051.81958</ele>
        <time>2013-05-04T09:21:41Z</time>
      </trkpt>
      <trkpt lat="32.76141" lon="-17.12906">
        <ele>1051.81958</ele>
        <time>2013-05-04T09:21:56Z</time>
      </trkpt>
      <trkpt lat="32.76145" lon="-17.12927">
        <ele>1051.338867</ele>
        <time>2013-05-04T09:22:09Z</time>
      </trkpt>
      <trkpt lat="32.76148" lon="-17.12945">
        <ele>1051.338867</ele>
        <time>2013-05-04T09:22:19Z</time>
      </trkpt>
      <trkpt lat="32.76145" lon="-17.12965">
        <ele>1051.81958</ele>
        <time>2013-05-04T09:22:30Z</time>
      </trkpt>
      <trkpt lat="32.76147" lon="-17.12971">
        <ele>1051.81958</ele>
        <time>2013-05-04T09:22:35Z</time>
      </trkpt>
      <trkpt lat="32.7616" lon="-17.12992">
        <ele>1051.338867</ele>
        <time>2013-05-04T09:22:48Z</time>
      </trkpt>
      <trkpt lat="32.76165" lon="-17.13005">
        <ele>1051.81958</ele>
        <time>2013-05-04T09:22:58Z</time>
      </trkpt>
      <trkpt lat="32.76173" lon="-17.13025">
        <ele>1051.338867</ele>
        <time>2013-05-04T09:23:11Z</time>
      </trkpt>
      <trkpt lat="32.76173" lon="-17.13028">
        <ele>1052.300293</ele>
        <time>2013-05-04T09:23:14Z</time>
      </trkpt>
      <trkpt lat="32.76181" lon="-17.13048">
        <ele>1051.338867</ele>
        <time>2013-05-04T09:23:26Z</time>
      </trkpt>
      <trkpt lat="32.76189" lon="-17.13067">
        <ele>1051.81958</ele>
        <time>2013-05-04T09:23:40Z</time>
      </trkpt>
      <trkpt lat="32.76192" lon="-17.13086">
        <ele>1052.300293</ele>
        <time>2013-05-04T09:23:54Z</time>
      </trkpt>
      <trkpt lat="32.76196" lon="-17.13091">
        <ele>1052.300293</ele>
        <time>2013-05-04T09:23:58Z</time>
      </trkpt>
      <trkpt lat="32.76208" lon="-17.13107">
        <ele>1051.338867</ele>
        <time>2013-05-04T09:24:11Z</time>
      </trkpt>
      <trkpt lat="32.76211" lon="-17.13111">
        <ele>1051.338867</ele>
        <time>2013-05-04T09:24:14Z</time>
      </trkpt>
      <trkpt lat="32.76219" lon="-17.13131">
        <ele>1051.338867</ele>
        <time>2013-05-04T09:24:29Z</time>
      </trkpt>
      <trkpt lat="32.76221" lon="-17.13137">
        <ele>1051.338867</ele>
        <time>2013-05-04T09:24:33Z</time>
      </trkpt>
      <trkpt lat="32.76227" lon="-17.13157">
        <ele>1050.858154</ele>
        <time>2013-05-04T09:24:47Z</time>
      </trkpt>
      <trkpt lat="32.76236" lon="-17.13167">
        <ele>1051.338867</ele>
        <time>2013-05-04T09:24:57Z</time>
      </trkpt>
      <trkpt lat="32.76242" lon="-17.13168">
        <ele>1051.338867</ele>
        <time>2013-05-04T09:25:10Z</time>
      </trkpt>
      <trkpt lat="32.76235" lon="-17.13152">
        <ele>1049.41626</ele>
        <time>2013-05-04T09:25:26Z</time>
      </trkpt>
      <trkpt lat="32.76234" lon="-17.1315">
        <ele>1047.974365</ele>
        <time>2013-05-04T09:25:29Z</time>
      </trkpt>
      <trkpt lat="32.76232" lon="-17.13146">
        <ele>1047.012939</ele>
        <time>2013-05-04T09:25:35Z</time>
      </trkpt>
      <trkpt lat="32.76232" lon="-17.13142">
        <ele>1045.090332</ele>
        <time>2013-05-04T09:25:42Z</time>
      </trkpt>
      <trkpt lat="32.76232" lon="-17.13133">
        <ele>1041.72583</ele>
        <time>2013-05-04T09:25:53Z</time>
      </trkpt>
      <trkpt lat="32.76233" lon="-17.13128">
        <ele>1038.361328</ele>
        <time>2013-05-04T09:26:02Z</time>
      </trkpt>
      <trkpt lat="32.76235" lon="-17.13116">
        <ele>1035.957764</ele>
        <time>2013-05-04T09:26:20Z</time>
      </trkpt>
      <trkpt lat="32.76236" lon="-17.13108">
        <ele>1034.515869</ele>
        <time>2013-05-04T09:26:34Z</time>
      </trkpt>
      <trkpt lat="32.76236" lon="-17.13098">
        <ele>1031.151367</ele>
        <time>2013-05-04T09:26:47Z</time>
      </trkpt>
      <trkpt lat="32.76238" lon="-17.1309">
        <ele>1028.748047</ele>
        <time>2013-05-04T09:27:00Z</time>
      </trkpt>
      <trkpt lat="32.76237" lon="-17.13084">
        <ele>1025.383301</ele>
        <time>2013-05-04T09:27:09Z</time>
      </trkpt>
      <trkpt lat="32.76234" lon="-17.13083">
        <ele>1025.864014</ele>
        <time>2013-05-04T09:27:23Z</time>
      </trkpt>
      <trkpt lat="32.76227" lon="-17.13075">
        <ele>1022.499512</ele>
        <time>2013-05-04T09:27:37Z</time>
      </trkpt>
      <trkpt lat="32.76227" lon="-17.13074">
        <ele>1022.980225</ele>
        <time>2013-05-04T09:27:38Z</time>
      </trkpt>
      <trkpt lat="32.76228" lon="-17.13062">
        <ele>1022.980225</ele>
        <time>2013-05-04T09:27:48Z</time>
      </trkpt>
      <trkpt lat="32.76229" lon="-17.1304">
        <ele>1020.576904</ele>
        <time>2013-05-04T09:28:05Z</time>
      </trkpt>
      <trkpt lat="32.76229" lon="-17.13029">
        <ele>1017.692627</ele>
        <time>2013-05-04T09:28:19Z</time>
      </trkpt>
      <trkpt lat="32.76224" lon="-17.13018">
        <ele>1016.731445</ele>
        <time>2013-05-04T09:28:32Z</time>
      </trkpt>
      <trkpt lat="32.76226" lon="-17.13007">
        <ele>1013.847412</ele>
        <time>2013-05-04T09:28:43Z</time>
      </trkpt>
      <trkpt lat="32.76226" lon="-17.13005">
        <ele>1013.366943</ele>
        <time>2013-05-04T09:28:45Z</time>
      </trkpt>
      <trkpt lat="32.76226" lon="-17.12994">
        <ele>1011.925049</ele>
        <time>2013-05-04T09:29:00Z</time>
      </trkpt>
      <trkpt lat="32.76226" lon="-17.12986">
        <ele>1008.560303</ele>
        <time>2013-05-04T09:29:12Z</time>
      </trkpt>
      <trkpt lat="32.7623" lon="-17.12988">
        <ele>1005.676514</ele>
        <time>2013-05-04T09:29:29Z</time>
      </trkpt>
      <trkpt lat="32.76235" lon="-17.1299">
        <ele>1002.311523</ele>
        <time>2013-05-04T09:29:42Z</time>
      </trkpt>
      <trkpt lat="32.76239" lon="-17.12989">
        <ele>999.908447</ele>
        <time>2013-05-04T09:29:55Z</time>
      </trkpt>
      <trkpt lat="32.76241" lon="-17.12981">
        <ele>997.505127</ele>
        <time>2013-05-04T09:30:13Z</time>
      </trkpt>
      <trkpt lat="32.76245" lon="-17.12981">
        <ele>994.140625</ele>
        <time>2013-05-04T09:30:27Z</time>
      </trkpt>
      <trkpt lat="32.76247" lon="-17.12981">
        <ele>990.775879</ele>
        <time>2013-05-04T09:30:38Z</time>
      </trkpt>
      <trkpt lat="32.76251" lon="-17.12983">
        <ele>988.372803</ele>
        <time>2013-05-04T09:30:56Z</time>
      </trkpt>
      <trkpt lat="32.76254" lon="-17.12972">
        <ele>986.449951</ele>
        <time>2013-05-04T09:31:12Z</time>
      </trkpt>
      <trkpt lat="32.76254" lon="-17.12969">
        <ele>985.488525</ele>
        <time>2013-05-04T09:31:15Z</time>
      </trkpt>
      <trkpt lat="32.76256" lon="-17.12962">
        <ele>983.085205</ele>
        <time>2013-05-04T09:31:29Z</time>
      </trkpt>
      <trkpt lat="32.7626" lon="-17.12956">
        <ele>982.124023</ele>
        <time>2013-05-04T09:31:45Z</time>
      </trkpt>
      <trkpt lat="32.76255" lon="-17.12946">
        <ele>980.682129</ele>
        <time>2013-05-04T09:32:00Z</time>
      </trkpt>
      <trkpt lat="32.76247" lon="-17.1294">
        <ele>980.682129</ele>
        <time>2013-05-04T09:32:15Z</time>
      </trkpt>
      <trkpt lat="32.76247" lon="-17.12926">
        <ele>980.682129</ele>
        <time>2013-05-04T09:32:26Z</time>
      </trkpt>
      <trkpt lat="32.76246" lon="-17.12913">
        <ele>980.682129</ele>
        <time>2013-05-04T09:32:35Z</time>
      </trkpt>
      <trkpt lat="32.76244" lon="-17.12893">
        <ele>980.682129</ele>
        <time>2013-05-04T09:32:51Z</time>
      </trkpt>
      <trkpt lat="32.76241" lon="-17.12882">
        <ele>981.162842</ele>
        <time>2013-05-04T09:33:00Z</time>
      </trkpt>
      <trkpt lat="32.76244" lon="-17.12866">
        <ele>980.201416</ele>
        <time>2013-05-04T09:33:11Z</time>
      </trkpt>
      <trkpt lat="32.76251" lon="-17.12854">
        <ele>980.682129</ele>
        <time>2013-05-04T09:33:21Z</time>
      </trkpt>
      <trkpt lat="32.76253" lon="-17.12828">
        <ele>980.682129</ele>
        <time>2013-05-04T09:33:38Z</time>
      </trkpt>
      <trkpt lat="32.7625" lon="-17.12806">
        <ele>980.201416</ele>
        <time>2013-05-04T09:33:53Z</time>
      </trkpt>
      <trkpt lat="32.76249" lon="-17.12796">
        <ele>980.201416</ele>
        <time>2013-05-04T09:33:59Z</time>
      </trkpt>
      <trkpt lat="32.76245" lon="-17.12772">
        <ele>980.682129</ele>
        <time>2013-05-04T09:34:15Z</time>
      </trkpt>
      <trkpt lat="32.76233" lon="-17.12756">
        <ele>980.201416</ele>
        <time>2013-05-04T09:34:30Z</time>
      </trkpt>
      <trkpt lat="32.76232" lon="-17.12754">
        <ele>980.201416</ele>
        <time>2013-05-04T09:34:46Z</time>
      </trkpt>
      <trkpt lat="32.7623" lon="-17.12753">
        <ele>980.201416</ele>
        <time>2013-05-04T09:34:48Z</time>
      </trkpt>
      <trkpt lat="32.76219" lon="-17.1275">
        <ele>979.720703</ele>
        <time>2013-05-04T09:34:56Z</time>
      </trkpt>
      <trkpt lat="32.76193" lon="-17.12745">
        <ele>978.759521</ele>
        <time>2013-05-04T09:35:11Z</time>
      </trkpt>
      <trkpt lat="32.76192" lon="-17.12741">
        <ele>978.759521</ele>
        <time>2013-05-04T09:35:25Z</time>
      </trkpt>
      <trkpt lat="32.76193" lon="-17.12741">
        <ele>978.759521</ele>
        <time>2013-05-04T09:35:26Z</time>
      </trkpt>
      <trkpt lat="32.76195" lon="-17.1274">
        <ele>978.278809</ele>
        <time>2013-05-04T09:35:29Z</time>
      </trkpt>
      <trkpt lat="32.76196" lon="-17.12731">
        <ele>979.23999</ele>
        <time>2013-05-04T09:35:37Z</time>
      </trkpt>
      <trkpt lat="32.7619" lon="-17.12721">
        <ele>979.23999</ele>
        <time>2013-05-04T09:35:46Z</time>
      </trkpt>
      <trkpt lat="32.76183" lon="-17.12699">
        <ele>979.720703</ele>
        <time>2013-05-04T09:36:01Z</time>
      </trkpt>
      <trkpt lat="32.76171" lon="-17.1269">
        <ele>980.201416</ele>
        <time>2013-05-04T09:36:12Z</time>
      </trkpt>
      <trkpt lat="32.76168" lon="-17.12681">
        <ele>980.201416</ele>
        <time>2013-05-04T09:36:18Z</time>
      </trkpt>
      <trkpt lat="32.76167" lon="-17.1267">
        <ele>980.682129</ele>
        <time>2013-05-04T09:36:26Z</time>
      </trkpt>
      <trkpt lat="32.76156" lon="-17.12653">
        <ele>979.720703</ele>
        <time>2013-05-04T09:36:41Z</time>
      </trkpt>
      <trkpt lat="32.76154" lon="-17.1265">
        <ele>979.720703</ele>
        <time>2013-05-04T09:36:43Z</time>
      </trkpt>
      <trkpt lat="32.76153" lon="-17.12649">
        <ele>979.23999</ele>
        <time>2013-05-04T09:36:45Z</time>
      </trkpt>
      <trkpt lat="32.76149" lon="-17.12645">
        <ele>979.23999</ele>
        <time>2013-05-04T09:36:50Z</time>
      </trkpt>
      <trkpt lat="32.76148" lon="-17.1263">
        <ele>978.278809</ele>
        <time>2013-05-04T09:37:09Z</time>
      </trkpt>
      <trkpt lat="32.76141" lon="-17.12611">
        <ele>979.720703</ele>
        <time>2013-05-04T09:37:24Z</time>
      </trkpt>
      <trkpt lat="32.76136" lon="-17.12604">
        <ele>980.201416</ele>
        <time>2013-05-04T09:37:32Z</time>
      </trkpt>
      <trkpt lat="32.76139" lon="-17.12598">
        <ele>980.682129</ele>
        <time>2013-05-04T09:37:41Z</time>
      </trkpt>
      <trkpt lat="32.76152" lon="-17.12593">
        <ele>976.836914</ele>
        <time>2013-05-04T09:38:04Z</time>
      </trkpt>
      <trkpt lat="32.76162" lon="-17.12589">
        <ele>974.433594</ele>
        <time>2013-05-04T09:38:16Z</time>
      </trkpt>
      <trkpt lat="32.76158" lon="-17.12578">
        <ele>972.991699</ele>
        <time>2013-05-04T09:38:28Z</time>
      </trkpt>
      <trkpt lat="32.76153" lon="-17.12568">
        <ele>972.030273</ele>
        <time>2013-05-04T09:38:42Z</time>
      </trkpt>
      <trkpt lat="32.76154" lon="-17.12559">
        <ele>969.14624</ele>
        <time>2013-05-04T09:38:53Z</time>
      </trkpt>
      <trkpt lat="32.76158" lon="-17.12549">
        <ele>965.781738</ele>
        <time>2013-05-04T09:39:06Z</time>
      </trkpt>
      <trkpt lat="32.76169" lon="-17.12534">
        <ele>964.3396</ele>
        <time>2013-05-04T09:39:27Z</time>
      </trkpt>
      <trkpt lat="32.7616" lon="-17.12535">
        <ele>965.301025</ele>
        <time>2013-05-04T09:39:40Z</time>
      </trkpt>
      <trkpt lat="32.76155" lon="-17.12546">
        <ele>967.223633</ele>
        <time>2013-05-04T09:39:47Z</time>
      </trkpt>
      <trkpt lat="32.76155" lon="-17.12554">
        <ele>969.626953</ele>
        <time>2013-05-04T09:39:51Z</time>
      </trkpt>
      <trkpt lat="32.76155" lon="-17.12563">
        <ele>972.510986</ele>
        <time>2013-05-04T09:39:57Z</time>
      </trkpt>
      <trkpt lat="32.76155" lon="-17.12563">
        <ele>972.510986</ele>
        <time>2013-05-04T09:39:58Z</time>
      </trkpt>
      <trkpt lat="32.76159" lon="-17.12573">
        <ele>975.875488</ele>
        <time>2013-05-04T09:40:11Z</time>
      </trkpt>
      <trkpt lat="32.76164" lon="-17.12574">
        <ele>978.759521</ele>
        <time>2013-05-04T09:40:18Z</time>
      </trkpt>
      <trkpt lat="32.76164" lon="-17.12575">
        <ele>979.23999</ele>
        <time>2013-05-04T09:40:19Z</time>
      </trkpt>
      <trkpt lat="32.76168" lon="-17.12579">
        <ele>981.162842</ele>
        <time>2013-05-04T09:40:33Z</time>
      </trkpt>
      <trkpt lat="32.76177" lon="-17.12575">
        <ele>981.643311</ele>
        <time>2013-05-04T09:40:48Z</time>
      </trkpt>
      <trkpt lat="32.76178" lon="-17.12576">
        <ele>981.643311</ele>
        <time>2013-05-04T09:41:00Z</time>
      </trkpt>
      <trkpt lat="32.76183" lon="-17.12588">
        <ele>981.162842</ele>
        <time>2013-05-04T09:41:17Z</time>
      </trkpt>
      <trkpt lat="32.76188" lon="-17.12593">
        <ele>981.643311</ele>
        <time>2013-05-04T09:41:22Z</time>
      </trkpt>
      <trkpt lat="32.76198" lon="-17.12595">
        <ele>981.162842</ele>
        <time>2013-05-04T09:41:33Z</time>
      </trkpt>
      <trkpt lat="32.76204" lon="-17.12591">
        <ele>982.604736</ele>
        <time>2013-05-04T09:41:55Z</time>
      </trkpt>
      <trkpt lat="32.76202" lon="-17.12589">
        <ele>983.085205</ele>
        <time>2013-05-04T09:42:14Z</time>
      </trkpt>
      <trkpt lat="32.76209" lon="-17.12596">
        <ele>983.565918</ele>
        <time>2013-05-04T09:42:35Z</time>
      </trkpt>
      <trkpt lat="32.76211" lon="-17.12603">
        <ele>983.085205</ele>
        <time>2013-05-04T09:42:49Z</time>
      </trkpt>
      <trkpt lat="32.76222" lon="-17.12599">
        <ele>983.085205</ele>
        <time>2013-05-04T09:43:17Z</time>
      </trkpt>
      <trkpt lat="32.76221" lon="-17.12599">
        <ele>982.604736</ele>
        <time>2013-05-04T09:43:36Z</time>
      </trkpt>
      <trkpt lat="32.76219" lon="-17.12597">
        <ele>982.604736</ele>
        <time>2013-05-04T09:43:53Z</time>
      </trkpt>
      <trkpt lat="32.76221" lon="-17.12597">
        <ele>982.124023</ele>
        <time>2013-05-04T09:43:57Z</time>
      </trkpt>
      <trkpt lat="32.76223" lon="-17.12599">
        <ele>983.085205</ele>
        <time>2013-05-04T09:44:00Z</time>
      </trkpt>
      <trkpt lat="32.76233" lon="-17.12608">
        <ele>983.085205</ele>
        <time>2013-05-04T09:44:09Z</time>
      </trkpt>
      <trkpt lat="32.7625" lon="-17.12617">
        <ele>984.527344</ele>
        <time>2013-05-04T09:44:20Z</time>
      </trkpt>
      <trkpt lat="32.76255" lon="-17.12623">
        <ele>985.008057</ele>
        <time>2013-05-04T09:44:24Z</time>
      </trkpt>
      <trkpt lat="32.76272" lon="-17.12622">
        <ele>985.488525</ele>
        <time>2013-05-04T09:44:35Z</time>
      </trkpt>
      <trkpt lat="32.76283" lon="-17.12612">
        <ele>985.969238</ele>
        <time>2013-05-04T09:44:45Z</time>
      </trkpt>
      <trkpt lat="32.76297" lon="-17.12598">
        <ele>985.969238</ele>
        <time>2013-05-04T09:45:00Z</time>
      </trkpt>
      <trkpt lat="32.76297" lon="-17.12596">
        <ele>985.488525</ele>
        <time>2013-05-04T09:45:01Z</time>
      </trkpt>
      <trkpt lat="32.76298" lon="-17.12591">
        <ele>985.008057</ele>
        <time>2013-05-04T09:45:06Z</time>
      </trkpt>
      <trkpt lat="32.76301" lon="-17.1259">
        <ele>985.008057</ele>
        <time>2013-05-04T09:45:09Z</time>
      </trkpt>
      <trkpt lat="32.76312" lon="-17.1261">
        <ele>985.008057</ele>
        <time>2013-05-04T09:45:24Z</time>
      </trkpt>
      <trkpt lat="32.76317" lon="-17.1261">
        <ele>986.449951</ele>
        <time>2013-05-04T09:45:42Z</time>
      </trkpt>
      <trkpt lat="32.76331" lon="-17.12599">
        <ele>986.449951</ele>
        <time>2013-05-04T09:45:53Z</time>
      </trkpt>
      <trkpt lat="32.76336" lon="-17.12592">
        <ele>987.411133</ele>
        <time>2013-05-04T09:45:58Z</time>
      </trkpt>
      <trkpt lat="32.76342" lon="-17.12588">
        <ele>986.449951</ele>
        <time>2013-05-04T09:46:03Z</time>
      </trkpt>
      <trkpt lat="32.7635" lon="-17.126">
        <ele>986.93042</ele>
        <time>2013-05-04T09:46:11Z</time>
      </trkpt>
      <trkpt lat="32.76367" lon="-17.12605">
        <ele>985.969238</ele>
        <time>2013-05-04T09:46:28Z</time>
      </trkpt>
      <trkpt lat="32.7638" lon="-17.12611">
        <ele>986.449951</ele>
        <time>2013-05-04T09:46:42Z</time>
      </trkpt>
      <trkpt lat="32.76386" lon="-17.12624">
        <ele>986.93042</ele>
        <time>2013-05-04T09:46:54Z</time>
      </trkpt>
      <trkpt lat="32.76387" lon="-17.12629">
        <ele>986.93042</ele>
        <time>2013-05-04T09:46:59Z</time>
      </trkpt>
      <trkpt lat="32.76394" lon="-17.12646">
        <ele>987.411133</ele>
        <time>2013-05-04T09:47:13Z</time>
      </trkpt>
      <trkpt lat="32.76399" lon="-17.12649">
        <ele>987.891846</ele>
        <time>2013-05-04T09:47:19Z</time>
      </trkpt>
      <trkpt lat="32.76411" lon="-17.1265">
        <ele>986.93042</ele>
        <time>2013-05-04T09:47:32Z</time>
      </trkpt>
      <trkpt lat="32.76415" lon="-17.12652">
        <ele>987.891846</ele>
        <time>2013-05-04T09:47:37Z</time>
      </trkpt>
      <trkpt lat="32.7642" lon="-17.12662">
        <ele>986.449951</ele>
        <time>2013-05-04T09:47:47Z</time>
      </trkpt>
      <trkpt lat="32.76426" lon="-17.12677">
        <ele>987.411133</ele>
        <time>2013-05-04T09:48:02Z</time>
      </trkpt>
      <trkpt lat="32.76431" lon="-17.1269">
        <ele>986.449951</ele>
        <time>2013-05-04T09:48:18Z</time>
      </trkpt>
      <trkpt lat="32.76433" lon="-17.12693">
        <ele>986.93042</ele>
        <time>2013-05-04T09:48:23Z</time>
      </trkpt>
      <trkpt lat="32.7644" lon="-17.12697">
        <ele>987.411133</ele>
        <time>2013-05-04T09:48:30Z</time>
      </trkpt>
      <trkpt lat="32.76446" lon="-17.12707">
        <ele>986.93042</ele>
        <time>2013-05-04T09:48:43Z</time>
      </trkpt>
      <trkpt lat="32.76447" lon="-17.12712">
        <ele>987.411133</ele>
        <time>2013-05-04T09:48:47Z</time>
      </trkpt>
      <trkpt lat="32.76451" lon="-17.12716">
        <ele>986.449951</ele>
        <time>2013-05-04T09:49:06Z</time>
      </trkpt>
      <trkpt lat="32.76454" lon="-17.12726">
        <ele>986.449951</ele>
        <time>2013-05-04T09:49:22Z</time>
      </trkpt>
      <trkpt lat="32.76458" lon="-17.12741">
        <ele>986.449951</ele>
        <time>2013-05-04T09:49:33Z</time>
      </trkpt>
      <trkpt lat="32.7646" lon="-17.12752">
        <ele>986.93042</ele>
        <time>2013-05-04T09:49:45Z</time>
      </trkpt>
      <trkpt lat="32.76462" lon="-17.12761">
        <ele>986.449951</ele>
        <time>2013-05-04T09:49:55Z</time>
      </trkpt>
      <trkpt lat="32.76465" lon="-17.12776">
        <ele>986.449951</ele>
        <time>2013-05-04T09:50:08Z</time>
      </trkpt>
      <trkpt lat="32.76473" lon="-17.12787">
        <ele>986.93042</ele>
        <time>2013-05-04T09:50:23Z</time>
      </trkpt>
      <trkpt lat="32.76478" lon="-17.12799">
        <ele>986.449951</ele>
        <time>2013-05-04T09:50:36Z</time>
      </trkpt>
      <trkpt lat="32.76482" lon="-17.12806">
        <ele>985.969238</ele>
        <time>2013-05-04T09:50:42Z</time>
      </trkpt>
      <trkpt lat="32.76483" lon="-17.12808">
        <ele>986.93042</ele>
        <time>2013-05-04T09:50:44Z</time>
      </trkpt>
      <trkpt lat="32.76488" lon="-17.12821">
        <ele>986.93042</ele>
        <time>2013-05-04T09:51:00Z</time>
      </trkpt>
      <trkpt lat="32.76493" lon="-17.12831">
        <ele>986.93042</ele>
        <time>2013-05-04T09:51:14Z</time>
      </trkpt>
      <trkpt lat="32.76496" lon="-17.12841">
        <ele>986.93042</ele>
        <time>2013-05-04T09:51:24Z</time>
      </trkpt>
      <trkpt lat="32.76498" lon="-17.12851">
        <ele>986.93042</ele>
        <time>2013-05-04T09:51:34Z</time>
      </trkpt>
      <trkpt lat="32.76498" lon="-17.12862">
        <ele>985.488525</ele>
        <time>2013-05-04T09:51:47Z</time>
      </trkpt>
      <trkpt lat="32.76506" lon="-17.12877">
        <ele>985.969238</ele>
        <time>2013-05-04T09:52:00Z</time>
      </trkpt>
      <trkpt lat="32.76514" lon="-17.12897">
        <ele>986.449951</ele>
        <time>2013-05-04T09:52:17Z</time>
      </trkpt>
      <trkpt lat="32.76524" lon="-17.12908">
        <ele>986.93042</ele>
        <time>2013-05-04T09:52:29Z</time>
      </trkpt>
      <trkpt lat="32.76531" lon="-17.12915">
        <ele>986.93042</ele>
        <time>2013-05-04T09:52:41Z</time>
      </trkpt>
      <trkpt lat="32.76541" lon="-17.1292">
        <ele>986.449951</ele>
        <time>2013-05-04T09:52:57Z</time>
      </trkpt>
      <trkpt lat="32.76551" lon="-17.12926">
        <ele>986.93042</ele>
        <time>2013-05-04T09:53:12Z</time>
      </trkpt>
      <trkpt lat="32.76561" lon="-17.12929">
        <ele>986.93042</ele>
        <time>2013-05-04T09:53:26Z</time>
      </trkpt>
      <trkpt lat="32.76572" lon="-17.12934">
        <ele>986.93042</ele>
        <time>2013-05-04T09:53:40Z</time>
      </trkpt>
      <trkpt lat="32.76582" lon="-17.12938">
        <ele>986.449951</ele>
        <time>2013-05-04T09:53:53Z</time>
      </trkpt>
      <trkpt lat="32.76588" lon="-17.12951">
        <ele>986.93042</ele>
        <time>2013-05-04T09:54:03Z</time>
      </trkpt>
      <trkpt lat="32.76596" lon="-17.12959">
        <ele>986.449951</ele>
        <time>2013-05-04T09:54:15Z</time>
      </trkpt>
      <trkpt lat="32.76601" lon="-17.12964">
        <ele>986.449951</ele>
        <time>2013-05-04T09:54:22Z</time>
      </trkpt>
      <trkpt lat="32.76609" lon="-17.12976">
        <ele>985.969238</ele>
        <time>2013-05-04T09:54:33Z</time>
      </trkpt>
      <trkpt lat="32.76615" lon="-17.12985">
        <ele>985.969238</ele>
        <time>2013-05-04T09:54:46Z</time>
      </trkpt>
      <trkpt lat="32.76619" lon="-17.12992">
        <ele>986.93042</ele>
        <time>2013-05-04T09:54:55Z</time>
      </trkpt>
      <trkpt lat="32.7663" lon="-17.13">
        <ele>987.411133</ele>
        <time>2013-05-04T09:55:10Z</time>
      </trkpt>
      <trkpt lat="32.76638" lon="-17.12987">
        <ele>986.449951</ele>
        <time>2013-05-04T09:55:21Z</time>
      </trkpt>
      <trkpt lat="32.7664" lon="-17.12982">
        <ele>986.449951</ele>
        <time>2013-05-04T09:55:26Z</time>
      </trkpt>
      <trkpt lat="32.76648" lon="-17.12973">
        <ele>986.93042</ele>
        <time>2013-05-04T09:55:36Z</time>
      </trkpt>
      <trkpt lat="32.76654" lon="-17.1296">
        <ele>986.449951</ele>
        <time>2013-05-04T09:55:50Z</time>
      </trkpt>
      <trkpt lat="32.76655" lon="-17.12946">
        <ele>986.449951</ele>
        <time>2013-05-04T09:56:03Z</time>
      </trkpt>
      <trkpt lat="32.76654" lon="-17.12931">
        <ele>986.93042</ele>
        <time>2013-05-04T09:56:19Z</time>
      </trkpt>
      <trkpt lat="32.76657" lon="-17.12916">
        <ele>985.488525</ele>
        <time>2013-05-04T09:56:34Z</time>
      </trkpt>
      <trkpt lat="32.76658" lon="-17.12904">
        <ele>985.488525</ele>
        <time>2013-05-04T09:56:43Z</time>
      </trkpt>
      <trkpt lat="32.76654" lon="-17.12885">
        <ele>986.449951</ele>
        <time>2013-05-04T09:56:59Z</time>
      </trkpt>
      <trkpt lat="32.7665" lon="-17.12877">
        <ele>985.969238</ele>
        <time>2013-05-04T09:57:05Z</time>
      </trkpt>
      <trkpt lat="32.7664" lon="-17.12859">
        <ele>985.008057</ele>
        <time>2013-05-04T09:57:21Z</time>
      </trkpt>
      <trkpt lat="32.7663" lon="-17.12847">
        <ele>985.488525</ele>
        <time>2013-05-04T09:57:33Z</time>
      </trkpt>
      <trkpt lat="32.76625" lon="-17.12843">
        <ele>985.488525</ele>
        <time>2013-05-04T09:57:39Z</time>
      </trkpt>
      <trkpt lat="32.76615" lon="-17.12828">
        <ele>985.488525</ele>
        <time>2013-05-04T09:57:54Z</time>
      </trkpt>
      <trkpt lat="32.76615" lon="-17.12828">
        <ele>985.488525</ele>
        <time>2013-05-04T09:57:55Z</time>
      </trkpt>
      <trkpt lat="32.76603" lon="-17.12818">
        <ele>985.969238</ele>
        <time>2013-05-04T09:58:09Z</time>
      </trkpt>
      <trkpt lat="32.76597" lon="-17.12812">
        <ele>985.969238</ele>
        <time>2013-05-04T09:58:27Z</time>
      </trkpt>
      <trkpt lat="32.76596" lon="-17.1281">
        <ele>985.488525</ele>
        <time>2013-05-04T09:58:29Z</time>
      </trkpt>
      <trkpt lat="32.76592" lon="-17.12794">
        <ele>985.488525</ele>
        <time>2013-05-04T09:58:42Z</time>
      </trkpt>
      <trkpt lat="32.76585" lon="-17.12783">
        <ele>986.449951</ele>
        <time>2013-05-04T09:58:52Z</time>
      </trkpt>
      <trkpt lat="32.76583" lon="-17.12782">
        <ele>985.969238</ele>
        <time>2013-05-04T09:58:54Z</time>
      </trkpt>
      <trkpt lat="32.76564" lon="-17.12766">
        <ele>985.969238</ele>
        <time>2013-05-04T09:59:13Z</time>
      </trkpt>
      <trkpt lat="32.7656" lon="-17.12758">
        <ele>986.449951</ele>
        <time>2013-05-04T09:59:27Z</time>
      </trkpt>
      <trkpt lat="32.76551" lon="-17.12749">
        <ele>986.93042</ele>
        <time>2013-05-04T09:59:51Z</time>
      </trkpt>
      <trkpt lat="32.76547" lon="-17.12746">
        <ele>986.93042</ele>
        <time>2013-05-04T09:59:59Z</time>
      </trkpt>
      <trkpt lat="32.7654" lon="-17.12734">
        <ele>986.93042</ele>
        <time>2013-05-04T10:00:13Z</time>
      </trkpt>
      <trkpt lat="32.76535" lon="-17.12728">
        <ele>985.969238</ele>
        <time>2013-05-04T10:00:23Z</time>
      </trkpt>
      <trkpt lat="32.76527" lon="-17.12714">
        <ele>988.372803</ele>
        <time>2013-05-04T10:00:38Z</time>
      </trkpt>
      <trkpt lat="32.76525" lon="-17.1271">
        <ele>988.372803</ele>
        <time>2013-05-04T10:00:42Z</time>
      </trkpt>
      <trkpt lat="32.76532" lon="-17.12697">
        <ele>987.411133</ele>
        <time>2013-05-04T10:00:59Z</time>
      </trkpt>
      <trkpt lat="32.7653" lon="-17.12668">
        <ele>987.891846</ele>
        <time>2013-05-04T10:01:19Z</time>
      </trkpt>
      <trkpt lat="32.76531" lon="-17.12667">
        <ele>987.411133</ele>
        <time>2013-05-04T10:01:20Z</time>
      </trkpt>
      <trkpt lat="32.76533" lon="-17.12647">
        <ele>987.891846</ele>
        <time>2013-05-04T10:01:34Z</time>
      </trkpt>
      <trkpt lat="32.76535" lon="-17.12642">
        <ele>987.411133</ele>
        <time>2013-05-04T10:01:39Z</time>
      </trkpt>
      <trkpt lat="32.76542" lon="-17.12628">
        <ele>986.93042</ele>
        <time>2013-05-04T10:01:53Z</time>
      </trkpt>
      <trkpt lat="32.76553" lon="-17.12613">
        <ele>985.969238</ele>
        <time>2013-05-04T10:02:07Z</time>
      </trkpt>
      <trkpt lat="32.76564" lon="-17.12598">
        <ele>987.411133</ele>
        <time>2013-05-04T10:02:21Z</time>
      </trkpt>
      <trkpt lat="32.76559" lon="-17.126">
        <ele>986.93042</ele>
        <time>2013-05-04T10:02:39Z</time>
      </trkpt>
      <trkpt lat="32.76569" lon="-17.12601">
        <ele>985.969238</ele>
        <time>2013-05-04T10:02:50Z</time>
      </trkpt>
      <trkpt lat="32.76578" lon="-17.12603">
        <ele>986.449951</ele>
        <time>2013-05-04T10:02:58Z</time>
      </trkpt>
      <trkpt lat="32.76571" lon="-17.12592">
        <ele>986.93042</ele>
        <time>2013-05-04T10:03:14Z</time>
      </trkpt>
      <trkpt lat="32.76561" lon="-17.12593">
        <ele>986.93042</ele>
        <time>2013-05-04T10:03:46Z</time>
      </trkpt>
      <trkpt lat="32.7656" lon="-17.1259">
        <ele>987.411133</ele>
        <time>2013-05-04T10:03:59Z</time>
      </trkpt>
      <trkpt lat="32.76564" lon="-17.12589">
        <ele>986.449951</ele>
        <time>2013-05-04T10:04:08Z</time>
      </trkpt>
      <trkpt lat="32.76564" lon="-17.12573">
        <ele>987.411133</ele>
        <time>2013-05-04T10:04:22Z</time>
      </trkpt>
      <trkpt lat="32.76562" lon="-17.12575">
        <ele>986.449951</ele>
        <time>2013-05-04T10:04:39Z</time>
      </trkpt>
      <trkpt lat="32.7655" lon="-17.12565">
        <ele>986.449951</ele>
        <time>2013-05-04T10:05:08Z</time>
      </trkpt>
      <trkpt lat="32.7655" lon="-17.12557">
        <ele>986.449951</ele>
        <time>2013-05-04T10:05:39Z</time>
      </trkpt>
      <trkpt lat="32.76572" lon="-17.12541">
        <ele>986.449951</ele>
        <time>2013-05-04T10:05:54Z</time>
      </trkpt>
      <trkpt lat="32.76564" lon="-17.12548">
        <ele>988.853516</ele>
        <time>2013-05-04T10:06:15Z</time>
      </trkpt>
      <trkpt lat="32.76551" lon="-17.12552">
        <ele>989.333984</ele>
        <time>2013-05-04T10:06:28Z</time>
      </trkpt>
      <trkpt lat="32.76547" lon="-17.12552">
        <ele>987.411133</ele>
        <time>2013-05-04T10:06:32Z</time>
      </trkpt>
      <trkpt lat="32.76547" lon="-17.12553">
        <ele>989.333984</ele>
        <time>2013-05-04T10:06:34Z</time>
      </trkpt>
      <trkpt lat="32.76552" lon="-17.12552">
        <ele>989.814697</ele>
        <time>2013-05-04T10:07:48Z</time>
      </trkpt>
      <trkpt lat="32.76557" lon="-17.12552">
        <ele>990.29541</ele>
        <time>2013-05-04T10:08:01Z</time>
      </trkpt>
      <trkpt lat="32.76566" lon="-17.12546">
        <ele>989.814697</ele>
        <time>2013-05-04T10:08:06Z</time>
      </trkpt>
      <trkpt lat="32.76574" lon="-17.12546">
        <ele>989.333984</ele>
        <time>2013-05-04T10:08:20Z</time>
      </trkpt>
      <trkpt lat="32.76564" lon="-17.12566">
        <ele>989.333984</ele>
        <time>2013-05-04T10:08:31Z</time>
      </trkpt>
      <trkpt lat="32.76553" lon="-17.12571">
        <ele>988.853516</ele>
        <time>2013-05-04T10:08:44Z</time>
      </trkpt>
      <trkpt lat="32.7655" lon="-17.12581">
        <ele>988.853516</ele>
        <time>2013-05-04T10:09:03Z</time>
      </trkpt>
      <trkpt lat="32.76548" lon="-17.12588">
        <ele>987.411133</ele>
        <time>2013-05-04T10:09:21Z</time>
      </trkpt>
      <trkpt lat="32.76544" lon="-17.12606">
        <ele>986.93042</ele>
        <time>2013-05-04T10:09:35Z</time>
      </trkpt>
      <trkpt lat="32.76545" lon="-17.12618">
        <ele>987.411133</ele>
        <time>2013-05-04T10:09:47Z</time>
      </trkpt>
      <trkpt lat="32.76541" lon="-17.1263">
        <ele>986.93042</ele>
        <time>2013-05-04T10:09:59Z</time>
      </trkpt>
      <trkpt lat="32.7653" lon="-17.12641">
        <ele>986.93042</ele>
        <time>2013-05-04T10:10:10Z</time>
      </trkpt>
      <trkpt lat="32.76523" lon="-17.12652">
        <ele>986.93042</ele>
        <time>2013-05-04T10:10:22Z</time>
      </trkpt>
      <trkpt lat="32.76522" lon="-17.12656">
        <ele>986.93042</ele>
        <time>2013-05-04T10:10:27Z</time>
      </trkpt>
      <trkpt lat="32.76526" lon="-17.1267">
        <ele>986.93042</ele>
        <time>2013-05-04T10:10:37Z</time>
      </trkpt>
      <trkpt lat="32.76524" lon="-17.12679">
        <ele>985.969238</ele>
        <time>2013-05-04T10:10:51Z</time>
      </trkpt>
      <trkpt lat="32.76526" lon="-17.12703">
        <ele>985.969238</ele>
        <time>2013-05-04T10:11:16Z</time>
      </trkpt>
      <trkpt lat="32.76527" lon="-17.12709">
        <ele>985.969238</ele>
        <time>2013-05-04T10:11:20Z</time>
      </trkpt>
      <trkpt lat="32.76529" lon="-17.12722">
        <ele>985.969238</ele>
        <time>2013-05-04T10:11:31Z</time>
      </trkpt>
      <trkpt lat="32.76535" lon="-17.12742">
        <ele>985.969238</ele>
        <time>2013-05-04T10:11:51Z</time>
      </trkpt>
      <trkpt lat="32.76542" lon="-17.1275">
        <ele>986.449951</ele>
        <time>2013-05-04T10:12:01Z</time>
      </trkpt>
      <trkpt lat="32.76558" lon="-17.12766">
        <ele>986.449951</ele>
        <time>2013-05-04T10:12:23Z</time>
      </trkpt>
      <trkpt lat="32.7658" lon="-17.12788">
        <ele>986.93042</ele>
        <time>2013-05-04T10:12:53Z</time>
      </trkpt>
      <trkpt lat="32.76592" lon="-17.12807">
        <ele>986.93042</ele>
        <time>2013-05-04T10:13:11Z</time>
      </trkpt>
      <trkpt lat="32.76603" lon="-17.12821">
        <ele>987.411133</ele>
        <time>2013-05-04T10:13:29Z</time>
      </trkpt>
      <trkpt lat="32.76608" lon="-17.12824">
        <ele>986.93042</ele>
        <time>2013-05-04T10:13:40Z</time>
      </trkpt>
      <trkpt lat="32.76618" lon="-17.12836">
        <ele>987.411133</ele>
        <time>2013-05-04T10:13:55Z</time>
      </trkpt>
      <trkpt lat="32.76626" lon="-17.12847">
        <ele>986.93042</ele>
        <time>2013-05-04T10:14:06Z</time>
      </trkpt>
      <trkpt lat="32.76649" lon="-17.12876">
        <ele>986.93042</ele>
        <time>2013-05-04T10:14:44Z</time>
      </trkpt>
      <trkpt lat="32.76654" lon="-17.12892">
        <ele>986.93042</ele>
        <time>2013-05-04T10:14:55Z</time>
      </trkpt>
      <trkpt lat="32.76656" lon="-17.12905">
        <ele>988.853516</ele>
        <time>2013-05-04T10:15:06Z</time>
      </trkpt>
      <trkpt lat="32.76657" lon="-17.12919">
        <ele>987.891846</ele>
        <time>2013-05-04T10:15:15Z</time>
      </trkpt>
      <trkpt lat="32.76653" lon="-17.12935">
        <ele>988.372803</ele>
        <time>2013-05-04T10:15:29Z</time>
      </trkpt>
      <trkpt lat="32.76654" lon="-17.12949">
        <ele>988.372803</ele>
        <time>2013-05-04T10:15:40Z</time>
      </trkpt>
      <trkpt lat="32.76653" lon="-17.12965">
        <ele>987.411133</ele>
        <time>2013-05-04T10:15:57Z</time>
      </trkpt>
      <trkpt lat="32.7665" lon="-17.1297">
        <ele>988.372803</ele>
        <time>2013-05-04T10:16:04Z</time>
      </trkpt>
      <trkpt lat="32.7664" lon="-17.12979">
        <ele>988.372803</ele>
        <time>2013-05-04T10:16:17Z</time>
      </trkpt>
      <trkpt lat="32.76631" lon="-17.12992">
        <ele>987.891846</ele>
        <time>2013-05-04T10:16:34Z</time>
      </trkpt>
      <trkpt lat="32.76628" lon="-17.12998">
        <ele>987.891846</ele>
        <time>2013-05-04T10:16:46Z</time>
      </trkpt>
      <trkpt lat="32.76624" lon="-17.12989">
        <ele>987.411133</ele>
        <time>2013-05-04T10:16:59Z</time>
      </trkpt>
      <trkpt lat="32.76616" lon="-17.12973">
        <ele>987.411133</ele>
        <time>2013-05-04T10:17:18Z</time>
      </trkpt>
      <trkpt lat="32.76606" lon="-17.12962">
        <ele>987.411133</ele>
        <time>2013-05-04T10:17:30Z</time>
      </trkpt>
      <trkpt lat="32.766" lon="-17.12953">
        <ele>986.449951</ele>
        <time>2013-05-04T10:17:42Z</time>
      </trkpt>
      <trkpt lat="32.76589" lon="-17.12945">
        <ele>985.969238</ele>
        <time>2013-05-04T10:17:55Z</time>
      </trkpt>
      <trkpt lat="32.76578" lon="-17.12944">
        <ele>988.372803</ele>
        <time>2013-05-04T10:18:05Z</time>
      </trkpt>
      <trkpt lat="32.76576" lon="-17.12941">
        <ele>986.93042</ele>
        <time>2013-05-04T10:18:08Z</time>
      </trkpt>
      <trkpt lat="32.76568" lon="-17.12936">
        <ele>987.411133</ele>
        <time>2013-05-04T10:18:19Z</time>
      </trkpt>
      <trkpt lat="32.76558" lon="-17.12924">
        <ele>988.372803</ele>
        <time>2013-05-04T10:18:31Z</time>
      </trkpt>
      <trkpt lat="32.76548" lon="-17.12915">
        <ele>987.891846</ele>
        <time>2013-05-04T10:18:44Z</time>
      </trkpt>
      <trkpt lat="32.76539" lon="-17.12911">
        <ele>988.372803</ele>
        <time>2013-05-04T10:18:56Z</time>
      </trkpt>
      <trkpt lat="32.76527" lon="-17.12903">
        <ele>987.891846</ele>
        <time>2013-05-04T10:19:16Z</time>
      </trkpt>
      <trkpt lat="32.76519" lon="-17.12891">
        <ele>987.411133</ele>
        <time>2013-05-04T10:19:31Z</time>
      </trkpt>
      <trkpt lat="32.76512" lon="-17.1288">
        <ele>987.411133</ele>
        <time>2013-05-04T10:19:43Z</time>
      </trkpt>
      <trkpt lat="32.76506" lon="-17.12868">
        <ele>986.93042</ele>
        <time>2013-05-04T10:19:55Z</time>
      </trkpt>
      <trkpt lat="32.76502" lon="-17.12857">
        <ele>986.93042</ele>
        <time>2013-05-04T10:20:06Z</time>
      </trkpt>
      <trkpt lat="32.76499" lon="-17.12849">
        <ele>986.93042</ele>
        <time>2013-05-04T10:20:17Z</time>
      </trkpt>
      <trkpt lat="32.76495" lon="-17.12836">
        <ele>986.449951</ele>
        <time>2013-05-04T10:20:31Z</time>
      </trkpt>
      <trkpt lat="32.76493" lon="-17.12827">
        <ele>987.411133</ele>
        <time>2013-05-04T10:20:42Z</time>
      </trkpt>
      <trkpt lat="32.76489" lon="-17.12813">
        <ele>987.411133</ele>
        <time>2013-05-04T10:20:54Z</time>
      </trkpt>
      <trkpt lat="32.7648" lon="-17.12802">
        <ele>986.93042</ele>
        <time>2013-05-04T10:21:06Z</time>
      </trkpt>
      <trkpt lat="32.76474" lon="-17.12788">
        <ele>986.93042</ele>
        <time>2013-05-04T10:21:18Z</time>
      </trkpt>
      <trkpt lat="32.76467" lon="-17.12776">
        <ele>986.449951</ele>
        <time>2013-05-04T10:21:30Z</time>
      </trkpt>
      <trkpt lat="32.76464" lon="-17.12763">
        <ele>986.93042</ele>
        <time>2013-05-04T10:21:41Z</time>
      </trkpt>
      <trkpt lat="32.76461" lon="-17.12752">
        <ele>987.411133</ele>
        <time>2013-05-04T10:21:52Z</time>
      </trkpt>
      <trkpt lat="32.76458" lon="-17.12736">
        <ele>986.93042</ele>
        <time>2013-05-04T10:22:27Z</time>
      </trkpt>
      <trkpt lat="32.76454" lon="-17.12731">
        <ele>986.449951</ele>
        <time>2013-05-04T10:22:44Z</time>
      </trkpt>
      <trkpt lat="32.76453" lon="-17.12716">
        <ele>986.449951</ele>
        <time>2013-05-04T10:22:55Z</time>
      </trkpt>
      <trkpt lat="32.76445" lon="-17.1271">
        <ele>986.449951</ele>
        <time>2013-05-04T10:23:06Z</time>
      </trkpt>
      <trkpt lat="32.76443" lon="-17.1271">
        <ele>986.449951</ele>
        <time>2013-05-04T10:23:08Z</time>
      </trkpt>
      <trkpt lat="32.76433" lon="-17.12698">
        <ele>985.969238</ele>
        <time>2013-05-04T10:23:19Z</time>
      </trkpt>
      <trkpt lat="32.76428" lon="-17.12678">
        <ele>986.449951</ele>
        <time>2013-05-04T10:23:32Z</time>
      </trkpt>
      <trkpt lat="32.76422" lon="-17.12666">
        <ele>985.969238</ele>
        <time>2013-05-04T10:23:44Z</time>
      </trkpt>
      <trkpt lat="32.76402" lon="-17.12652">
        <ele>986.449951</ele>
        <time>2013-05-04T10:24:07Z</time>
      </trkpt>
      <trkpt lat="32.76395" lon="-17.12638">
        <ele>986.93042</ele>
        <time>2013-05-04T10:24:21Z</time>
      </trkpt>
      <trkpt lat="32.76395" lon="-17.12634">
        <ele>986.449951</ele>
        <time>2013-05-04T10:24:24Z</time>
      </trkpt>
      <trkpt lat="32.7639" lon="-17.12623">
        <ele>986.93042</ele>
        <time>2013-05-04T10:24:35Z</time>
      </trkpt>
      <trkpt lat="32.76382" lon="-17.12619">
        <ele>987.411133</ele>
        <time>2013-05-04T10:24:43Z</time>
      </trkpt>
      <trkpt lat="32.76375" lon="-17.12615">
        <ele>986.93042</ele>
        <time>2013-05-04T10:24:50Z</time>
      </trkpt>
      <trkpt lat="32.76371" lon="-17.12615">
        <ele>986.93042</ele>
        <time>2013-05-04T10:24:53Z</time>
      </trkpt>
      <trkpt lat="32.76368" lon="-17.12615">
        <ele>987.411133</ele>
        <time>2013-05-04T10:24:55Z</time>
      </trkpt>
      <trkpt lat="32.76359" lon="-17.12622">
        <ele>987.411133</ele>
        <time>2013-05-04T10:25:00Z</time>
      </trkpt>
      <trkpt lat="32.76348" lon="-17.12618">
        <ele>986.93042</ele>
        <time>2013-05-04T10:25:10Z</time>
      </trkpt>
      <trkpt lat="32.76341" lon="-17.1261">
        <ele>986.93042</ele>
        <time>2013-05-04T10:25:20Z</time>
      </trkpt>
      <trkpt lat="32.76324" lon="-17.12609">
        <ele>987.891846</ele>
        <time>2013-05-04T10:25:52Z</time>
      </trkpt>
      <trkpt lat="32.76312" lon="-17.12604">
        <ele>987.891846</ele>
        <time>2013-05-04T10:26:03Z</time>
      </trkpt>
      <trkpt lat="32.76298" lon="-17.12603">
        <ele>987.891846</ele>
        <time>2013-05-04T10:26:16Z</time>
      </trkpt>
      <trkpt lat="32.76297" lon="-17.12603">
        <ele>987.891846</ele>
        <time>2013-05-04T10:26:21Z</time>
      </trkpt>
      <trkpt lat="32.7629" lon="-17.12607">
        <ele>987.891846</ele>
        <time>2013-05-04T10:26:37Z</time>
      </trkpt>
      <trkpt lat="32.76277" lon="-17.12613">
        <ele>987.891846</ele>
        <time>2013-05-04T10:26:50Z</time>
      </trkpt>
      <trkpt lat="32.76274" lon="-17.1262">
        <ele>987.891846</ele>
        <time>2013-05-04T10:26:58Z</time>
      </trkpt>
      <trkpt lat="32.76273" lon="-17.12617">
        <ele>987.891846</ele>
        <time>2013-05-04T10:27:02Z</time>
      </trkpt>
      <trkpt lat="32.76261" lon="-17.12616">
        <ele>986.93042</ele>
        <time>2013-05-04T10:27:12Z</time>
      </trkpt>
      <trkpt lat="32.76254" lon="-17.12618">
        <ele>987.891846</ele>
        <time>2013-05-04T10:27:15Z</time>
      </trkpt>
      <trkpt lat="32.76239" lon="-17.1261">
        <ele>987.411133</ele>
        <time>2013-05-04T10:27:25Z</time>
      </trkpt>
      <trkpt lat="32.76234" lon="-17.12608">
        <ele>987.891846</ele>
        <time>2013-05-04T10:27:30Z</time>
      </trkpt>
      <trkpt lat="32.76216" lon="-17.12601">
        <ele>987.891846</ele>
        <time>2013-05-04T10:27:44Z</time>
      </trkpt>
      <trkpt lat="32.76207" lon="-17.12591">
        <ele>987.411133</ele>
        <time>2013-05-04T10:27:57Z</time>
      </trkpt>
      <trkpt lat="32.76204" lon="-17.12585">
        <ele>987.891846</ele>
        <time>2013-05-04T10:28:04Z</time>
      </trkpt>
      <trkpt lat="32.76192" lon="-17.12577">
        <ele>987.411133</ele>
        <time>2013-05-04T10:28:16Z</time>
      </trkpt>
      <trkpt lat="32.76186" lon="-17.12565">
        <ele>987.411133</ele>
        <time>2013-05-04T10:28:29Z</time>
      </trkpt>
      <trkpt lat="32.7618" lon="-17.12556">
        <ele>988.372803</ele>
        <time>2013-05-04T10:28:44Z</time>
      </trkpt>
      <trkpt lat="32.76175" lon="-17.12549">
        <ele>986.93042</ele>
        <time>2013-05-04T10:29:00Z</time>
      </trkpt>
      <trkpt lat="32.76164" lon="-17.12553">
        <ele>984.527344</ele>
        <time>2013-05-04T10:29:18Z</time>
      </trkpt>
      <trkpt lat="32.76163" lon="-17.12551">
        <ele>981.643311</ele>
        <time>2013-05-04T10:29:23Z</time>
      </trkpt>
      <trkpt lat="32.76157" lon="-17.12549">
        <ele>979.23999</ele>
        <time>2013-05-04T10:29:32Z</time>
      </trkpt>
      <trkpt lat="32.76151" lon="-17.12548">
        <ele>975.394775</ele>
        <time>2013-05-04T10:29:42Z</time>
      </trkpt>
      <trkpt lat="32.7615" lon="-17.12548">
        <ele>975.875488</ele>
        <time>2013-05-04T10:29:43Z</time>
      </trkpt>
      <trkpt lat="32.76144" lon="-17.12553">
        <ele>974.433594</ele>
        <time>2013-05-04T10:29:46Z</time>
      </trkpt>
      <trkpt lat="32.76135" lon="-17.12557">
        <ele>974.433594</ele>
        <time>2013-05-04T10:30:03Z</time>
      </trkpt>
      <trkpt lat="32.76144" lon="-17.12558">
        <ele>975.875488</ele>
        <time>2013-05-04T10:30:16Z</time>
      </trkpt>
      <trkpt lat="32.7615" lon="-17.12568">
        <ele>979.23999</ele>
        <time>2013-05-04T10:30:29Z</time>
      </trkpt>
      <trkpt lat="32.76146" lon="-17.12574">
        <ele>982.604736</ele>
        <time>2013-05-04T10:30:40Z</time>
      </trkpt>
      <trkpt lat="32.76145" lon="-17.12582">
        <ele>984.527344</ele>
        <time>2013-05-04T10:30:50Z</time>
      </trkpt>
      <trkpt lat="32.7615" lon="-17.12589">
        <ele>985.969238</ele>
        <time>2013-05-04T10:30:55Z</time>
      </trkpt>
      <trkpt lat="32.76148" lon="-17.12591">
        <ele>987.411133</ele>
        <time>2013-05-04T10:30:58Z</time>
      </trkpt>
      <trkpt lat="32.76156" lon="-17.12614">
        <ele>987.411133</ele>
        <time>2013-05-04T10:31:15Z</time>
      </trkpt>
      <trkpt lat="32.76142" lon="-17.12618">
        <ele>987.411133</ele>
        <time>2013-05-04T10:31:31Z</time>
      </trkpt>
      <trkpt lat="32.76144" lon="-17.12624">
        <ele>987.411133</ele>
        <time>2013-05-04T10:31:44Z</time>
      </trkpt>
      <trkpt lat="32.76147" lon="-17.12634">
        <ele>987.891846</ele>
        <time>2013-05-04T10:31:50Z</time>
      </trkpt>
      <trkpt lat="32.76151" lon="-17.12653">
        <ele>987.411133</ele>
        <time>2013-05-04T10:32:04Z</time>
      </trkpt>
      <trkpt lat="32.76158" lon="-17.12665">
        <ele>987.411133</ele>
        <time>2013-05-04T10:32:18Z</time>
      </trkpt>
      <trkpt lat="32.76158" lon="-17.12671">
        <ele>987.411133</ele>
        <time>2013-05-04T10:32:23Z</time>
      </trkpt>
      <trkpt lat="32.76164" lon="-17.12683">
        <ele>987.411133</ele>
        <time>2013-05-04T10:32:33Z</time>
      </trkpt>
      <trkpt lat="32.76173" lon="-17.12691">
        <ele>987.411133</ele>
        <time>2013-05-04T10:32:44Z</time>
      </trkpt>
      <trkpt lat="32.76176" lon="-17.12695">
        <ele>987.411133</ele>
        <time>2013-05-04T10:32:48Z</time>
      </trkpt>
      <trkpt lat="32.76183" lon="-17.12711">
        <ele>987.411133</ele>
        <time>2013-05-04T10:33:01Z</time>
      </trkpt>
      <trkpt lat="32.76189" lon="-17.12722">
        <ele>986.93042</ele>
        <time>2013-05-04T10:33:10Z</time>
      </trkpt>
      <trkpt lat="32.76196" lon="-17.12734">
        <ele>986.93042</ele>
        <time>2013-05-04T10:33:22Z</time>
      </trkpt>
      <trkpt lat="32.76191" lon="-17.12746">
        <ele>986.93042</ele>
        <time>2013-05-04T10:33:32Z</time>
      </trkpt>
      <trkpt lat="32.76191" lon="-17.12746">
        <ele>986.93042</ele>
        <time>2013-05-04T10:33:33Z</time>
      </trkpt>
      <trkpt lat="32.76202" lon="-17.12748">
        <ele>986.449951</ele>
        <time>2013-05-04T10:33:39Z</time>
      </trkpt>
      <trkpt lat="32.76208" lon="-17.12744">
        <ele>986.449951</ele>
        <time>2013-05-04T10:33:45Z</time>
      </trkpt>
      <trkpt lat="32.76219" lon="-17.12743">
        <ele>986.93042</ele>
        <time>2013-05-04T10:33:58Z</time>
      </trkpt>
      <trkpt lat="32.76229" lon="-17.12748">
        <ele>986.449951</ele>
        <time>2013-05-04T10:34:07Z</time>
      </trkpt>
      <trkpt lat="32.76238" lon="-17.12771">
        <ele>985.969238</ele>
        <time>2013-05-04T10:34:21Z</time>
      </trkpt>
      <trkpt lat="32.76243" lon="-17.12787">
        <ele>985.969238</ele>
        <time>2013-05-04T10:34:32Z</time>
      </trkpt>
      <trkpt lat="32.76252" lon="-17.12807">
        <ele>986.449951</ele>
        <time>2013-05-04T10:34:45Z</time>
      </trkpt>
      <trkpt lat="32.76254" lon="-17.12818">
        <ele>985.488525</ele>
        <time>2013-05-04T10:34:52Z</time>
      </trkpt>
      <trkpt lat="32.76254" lon="-17.1283">
        <ele>985.969238</ele>
        <time>2013-05-04T10:35:00Z</time>
      </trkpt>
      <trkpt lat="32.76253" lon="-17.12835">
        <ele>986.449951</ele>
        <time>2013-05-04T10:35:03Z</time>
      </trkpt>
      <trkpt lat="32.7625" lon="-17.1285">
        <ele>986.93042</ele>
        <time>2013-05-04T10:35:15Z</time>
      </trkpt>
      <trkpt lat="32.76251" lon="-17.12856">
        <ele>985.969238</ele>
        <time>2013-05-04T10:35:20Z</time>
      </trkpt>
      <trkpt lat="32.76244" lon="-17.12865">
        <ele>985.969238</ele>
        <time>2013-05-04T10:35:27Z</time>
      </trkpt>
      <trkpt lat="32.76243" lon="-17.12871">
        <ele>986.93042</ele>
        <time>2013-05-04T10:35:31Z</time>
      </trkpt>
      <trkpt lat="32.76244" lon="-17.12877">
        <ele>986.93042</ele>
        <time>2013-05-04T10:35:35Z</time>
      </trkpt>
      <trkpt lat="32.76247" lon="-17.12896">
        <ele>986.93042</ele>
        <time>2013-05-04T10:35:48Z</time>
      </trkpt>
      <trkpt lat="32.76249" lon="-17.1291">
        <ele>986.93042</ele>
        <time>2013-05-04T10:35:59Z</time>
      </trkpt>
      <trkpt lat="32.76247" lon="-17.12914">
        <ele>987.891846</ele>
        <time>2013-05-04T10:36:02Z</time>
      </trkpt>
      <trkpt lat="32.76246" lon="-17.12918">
        <ele>985.969238</ele>
        <time>2013-05-04T10:36:04Z</time>
      </trkpt>
      <trkpt lat="32.76244" lon="-17.12935">
        <ele>987.411133</ele>
        <time>2013-05-04T10:36:15Z</time>
      </trkpt>
      <trkpt lat="32.76249" lon="-17.12943">
        <ele>987.411133</ele>
        <time>2013-05-04T10:36:26Z</time>
      </trkpt>
      <trkpt lat="32.76255" lon="-17.12953">
        <ele>987.411133</ele>
        <time>2013-05-04T10:36:40Z</time>
      </trkpt>
      <trkpt lat="32.7626" lon="-17.12962">
        <ele>987.411133</ele>
        <time>2013-05-04T10:36:58Z</time>
      </trkpt>
      <trkpt lat="32.7626" lon="-17.1296">
        <ele>987.891846</ele>
        <time>2013-05-04T10:37:18Z</time>
      </trkpt>
      <trkpt lat="32.76259" lon="-17.12968">
        <ele>987.411133</ele>
        <time>2013-05-04T10:37:37Z</time>
      </trkpt>
      <trkpt lat="32.76266" lon="-17.12982">
        <ele>987.411133</ele>
        <time>2013-05-04T10:37:49Z</time>
      </trkpt>
      <trkpt lat="32.76273" lon="-17.12994">
        <ele>987.411133</ele>
        <time>2013-05-04T10:38:00Z</time>
      </trkpt>
      <trkpt lat="32.76278" lon="-17.1301">
        <ele>987.411133</ele>
        <time>2013-05-04T10:38:11Z</time>
      </trkpt>
      <trkpt lat="32.76282" lon="-17.13024">
        <ele>987.891846</ele>
        <time>2013-05-04T10:38:19Z</time>
      </trkpt>
      <trkpt lat="32.76278" lon="-17.13038">
        <ele>987.411133</ele>
        <time>2013-05-04T10:38:30Z</time>
      </trkpt>
      <trkpt lat="32.76274" lon="-17.13042">
        <ele>987.411133</ele>
        <time>2013-05-04T10:38:33Z</time>
      </trkpt>
      <trkpt lat="32.76285" lon="-17.13046">
        <ele>986.93042</ele>
        <time>2013-05-04T10:38:51Z</time>
      </trkpt>
      <trkpt lat="32.76288" lon="-17.13049">
        <ele>986.93042</ele>
        <time>2013-05-04T10:38:53Z</time>
      </trkpt>
      <trkpt lat="32.76295" lon="-17.13054">
        <ele>987.891846</ele>
        <time>2013-05-04T10:38:59Z</time>
      </trkpt>
      <trkpt lat="32.763" lon="-17.13071">
        <ele>987.891846</ele>
        <time>2013-05-04T10:39:12Z</time>
      </trkpt>
      <trkpt lat="32.76302" lon="-17.13091">
        <ele>987.411133</ele>
        <time>2013-05-04T10:39:27Z</time>
      </trkpt>
      <trkpt lat="32.76304" lon="-17.13096">
        <ele>988.372803</ele>
        <time>2013-05-04T10:39:31Z</time>
      </trkpt>
      <trkpt lat="32.76315" lon="-17.13104">
        <ele>988.372803</ele>
        <time>2013-05-04T10:39:42Z</time>
      </trkpt>
      <trkpt lat="32.76322" lon="-17.13107">
        <ele>986.93042</ele>
        <time>2013-05-04T10:39:49Z</time>
      </trkpt>
      <trkpt lat="32.76327" lon="-17.13116">
        <ele>987.411133</ele>
        <time>2013-05-04T10:39:56Z</time>
      </trkpt>
      <trkpt lat="32.76334" lon="-17.13116">
        <ele>987.411133</ele>
        <time>2013-05-04T10:40:04Z</time>
      </trkpt>
      <trkpt lat="32.76354" lon="-17.13119">
        <ele>987.891846</ele>
        <time>2013-05-04T10:40:21Z</time>
      </trkpt>
      <trkpt lat="32.76355" lon="-17.13121">
        <ele>987.891846</ele>
        <time>2013-05-04T10:40:22Z</time>
      </trkpt>
      <trkpt lat="32.7636" lon="-17.13134">
        <ele>987.411133</ele>
        <time>2013-05-04T10:40:30Z</time>
      </trkpt>
      <trkpt lat="32.76365" lon="-17.13141">
        <ele>987.411133</ele>
        <time>2013-05-04T10:40:35Z</time>
      </trkpt>
      <trkpt lat="32.76372" lon="-17.13145">
        <ele>987.411133</ele>
        <time>2013-05-04T10:40:42Z</time>
      </trkpt>
      <trkpt lat="32.76377" lon="-17.13159">
        <ele>986.93042</ele>
        <time>2013-05-04T10:40:53Z</time>
      </trkpt>
      <trkpt lat="32.76377" lon="-17.13169">
        <ele>987.411133</ele>
        <time>2013-05-04T10:40:59Z</time>
      </trkpt>
      <trkpt lat="32.7638" lon="-17.1319">
        <ele>987.411133</ele>
        <time>2013-05-04T10:41:12Z</time>
      </trkpt>
      <trkpt lat="32.76389" lon="-17.13208">
        <ele>987.411133</ele>
        <time>2013-05-04T10:41:24Z</time>
      </trkpt>
      <trkpt lat="32.76392" lon="-17.13221">
        <ele>987.411133</ele>
        <time>2013-05-04T10:41:37Z</time>
      </trkpt>
      <trkpt lat="32.76398" lon="-17.13235">
        <ele>986.93042</ele>
        <time>2013-05-04T10:41:49Z</time>
      </trkpt>
      <trkpt lat="32.76398" lon="-17.13238">
        <ele>986.93042</ele>
        <time>2013-05-04T10:41:51Z</time>
      </trkpt>
      <trkpt lat="32.76399" lon="-17.13248">
        <ele>986.93042</ele>
        <time>2013-05-04T10:41:57Z</time>
      </trkpt>
      <trkpt lat="32.76402" lon="-17.13257">
        <ele>986.93042</ele>
        <time>2013-05-04T10:42:04Z</time>
      </trkpt>
      <trkpt lat="32.7639" lon="-17.13266">
        <ele>986.93042</ele>
        <time>2013-05-04T10:42:12Z</time>
      </trkpt>
      <trkpt lat="32.76386" lon="-17.13281">
        <ele>987.411133</ele>
        <time>2013-05-04T10:42:25Z</time>
      </trkpt>
      <trkpt lat="32.76397" lon="-17.13301">
        <ele>986.93042</ele>
        <time>2013-05-04T10:42:38Z</time>
      </trkpt>
      <trkpt lat="32.76402" lon="-17.13311">
        <ele>987.411133</ele>
        <time>2013-05-04T10:42:45Z</time>
      </trkpt>
      <trkpt lat="32.76418" lon="-17.13324">
        <ele>986.93042</ele>
        <time>2013-05-04T10:42:59Z</time>
      </trkpt>
      <trkpt lat="32.76421" lon="-17.13343">
        <ele>987.411133</ele>
        <time>2013-05-04T10:43:12Z</time>
      </trkpt>
      <trkpt lat="32.7642" lon="-17.13344">
        <ele>987.411133</ele>
        <time>2013-05-04T10:43:14Z</time>
      </trkpt>
      <trkpt lat="32.76414" lon="-17.13352">
        <ele>986.449951</ele>
        <time>2013-05-04T10:43:21Z</time>
      </trkpt>
      <trkpt lat="32.76402" lon="-17.13366">
        <ele>986.449951</ele>
        <time>2013-05-04T10:43:33Z</time>
      </trkpt>
      <trkpt lat="32.76391" lon="-17.13375">
        <ele>986.449951</ele>
        <time>2013-05-04T10:43:44Z</time>
      </trkpt>
      <trkpt lat="32.76371" lon="-17.13388">
        <ele>986.449951</ele>
        <time>2013-05-04T10:43:58Z</time>
      </trkpt>
      <trkpt lat="32.76367" lon="-17.134">
        <ele>985.969238</ele>
        <time>2013-05-04T10:44:07Z</time>
      </trkpt>
      <trkpt lat="32.7636" lon="-17.13409">
        <ele>986.93042</ele>
        <time>2013-05-04T10:44:15Z</time>
      </trkpt>
      <trkpt lat="32.76356" lon="-17.13411">
        <ele>985.969238</ele>
        <time>2013-05-04T10:44:19Z</time>
      </trkpt>
      <trkpt lat="32.76347" lon="-17.13418">
        <ele>985.969238</ele>
        <time>2013-05-04T10:44:31Z</time>
      </trkpt>
      <trkpt lat="32.76332" lon="-17.1343">
        <ele>985.969238</ele>
        <time>2013-05-04T10:44:42Z</time>
      </trkpt>
      <trkpt lat="32.7633" lon="-17.13433">
        <ele>985.969238</ele>
        <time>2013-05-04T10:44:45Z</time>
      </trkpt>
      <trkpt lat="32.76318" lon="-17.13438">
        <ele>985.969238</ele>
        <time>2013-05-04T10:44:56Z</time>
      </trkpt>
      <trkpt lat="32.76307" lon="-17.13439">
        <ele>985.488525</ele>
        <time>2013-05-04T10:45:04Z</time>
      </trkpt>
      <trkpt lat="32.76299" lon="-17.13444">
        <ele>985.008057</ele>
        <time>2013-05-04T10:45:14Z</time>
      </trkpt>
      <trkpt lat="32.763" lon="-17.13444">
        <ele>985.488525</ele>
        <time>2013-05-04T10:45:15Z</time>
      </trkpt>
      <trkpt lat="32.76305" lon="-17.13455">
        <ele>985.969238</ele>
        <time>2013-05-04T10:45:24Z</time>
      </trkpt>
      <trkpt lat="32.76306" lon="-17.13467">
        <ele>985.488525</ele>
        <time>2013-05-04T10:45:33Z</time>
      </trkpt>
      <trkpt lat="32.76305" lon="-17.13487">
        <ele>985.008057</ele>
        <time>2013-05-04T10:45:47Z</time>
      </trkpt>
      <trkpt lat="32.76305" lon="-17.13489">
        <ele>985.969238</ele>
        <time>2013-05-04T10:45:49Z</time>
      </trkpt>
      <trkpt lat="32.76297" lon="-17.13506">
        <ele>985.969238</ele>
        <time>2013-05-04T10:45:59Z</time>
      </trkpt>
      <trkpt lat="32.76291" lon="-17.13518">
        <ele>985.488525</ele>
        <time>2013-05-04T10:46:08Z</time>
      </trkpt>
      <trkpt lat="32.76293" lon="-17.13529">
        <ele>985.488525</ele>
        <time>2013-05-04T10:46:14Z</time>
      </trkpt>
      <trkpt lat="32.76297" lon="-17.13548">
        <ele>985.969238</ele>
        <time>2013-05-04T10:46:25Z</time>
      </trkpt>
      <trkpt lat="32.76295" lon="-17.13557">
        <ele>985.969238</ele>
        <time>2013-05-04T10:46:32Z</time>
      </trkpt>
      <trkpt lat="32.76284" lon="-17.13567">
        <ele>985.969238</ele>
        <time>2013-05-04T10:46:41Z</time>
      </trkpt>
      <trkpt lat="32.76283" lon="-17.13568">
        <ele>985.969238</ele>
        <time>2013-05-04T10:46:43Z</time>
      </trkpt>
      <trkpt lat="32.76275" lon="-17.13571">
        <ele>985.488525</ele>
        <time>2013-05-04T10:46:53Z</time>
      </trkpt>
      <trkpt lat="32.76267" lon="-17.13587">
        <ele>985.488525</ele>
        <time>2013-05-04T10:47:06Z</time>
      </trkpt>
      <trkpt lat="32.76257" lon="-17.13595">
        <ele>985.488525</ele>
        <time>2013-05-04T10:47:14Z</time>
      </trkpt>
      <trkpt lat="32.76253" lon="-17.136">
        <ele>985.488525</ele>
        <time>2013-05-04T10:47:18Z</time>
      </trkpt>
      <trkpt lat="32.76251" lon="-17.13603">
        <ele>985.488525</ele>
        <time>2013-05-04T10:47:20Z</time>
      </trkpt>
      <trkpt lat="32.76242" lon="-17.13615">
        <ele>985.008057</ele>
        <time>2013-05-04T10:47:31Z</time>
      </trkpt>
      <trkpt lat="32.76239" lon="-17.13617">
        <ele>985.008057</ele>
        <time>2013-05-04T10:47:33Z</time>
      </trkpt>
      <trkpt lat="32.7622" lon="-17.13623">
        <ele>985.488525</ele>
        <time>2013-05-04T10:47:46Z</time>
      </trkpt>
      <trkpt lat="32.76219" lon="-17.1362">
        <ele>988.853516</ele>
        <time>2013-05-04T10:48:26Z</time>
      </trkpt>
      <trkpt lat="32.7621" lon="-17.13618">
        <ele>991.737305</ele>
        <time>2013-05-04T10:48:40Z</time>
      </trkpt>
      <trkpt lat="32.76213" lon="-17.13616">
        <ele>994.621094</ele>
        <time>2013-05-04T10:49:04Z</time>
      </trkpt>
      <trkpt lat="32.76215" lon="-17.13617">
        <ele>997.98584</ele>
        <time>2013-05-04T10:49:11Z</time>
      </trkpt>
      <trkpt lat="32.76203" lon="-17.13606">
        <ele>1000.869629</ele>
        <time>2013-05-04T10:49:32Z</time>
      </trkpt>
      <trkpt lat="32.76196" lon="-17.13607">
        <ele>1002.792236</ele>
        <time>2013-05-04T10:49:42Z</time>
      </trkpt>
      <trkpt lat="32.7619" lon="-17.13613">
        <ele>1004.715088</ele>
        <time>2013-05-04T10:49:53Z</time>
      </trkpt>
      <trkpt lat="32.7619" lon="-17.13614">
        <ele>1006.637695</ele>
        <time>2013-05-04T10:49:56Z</time>
      </trkpt>
      <trkpt lat="32.76178" lon="-17.13622">
        <ele>1008.079834</ele>
        <time>2013-05-04T10:50:10Z</time>
      </trkpt>
      <trkpt lat="32.76161" lon="-17.13619">
        <ele>1010.963623</ele>
        <time>2013-05-04T10:50:31Z</time>
      </trkpt>
      <trkpt lat="32.7616" lon="-17.13618">
        <ele>1010.48291</ele>
        <time>2013-05-04T10:50:35Z</time>
      </trkpt>
      <trkpt lat="32.76154" lon="-17.13616">
        <ele>1011.444336</ele>
        <time>2013-05-04T10:50:44Z</time>
      </trkpt>
      <trkpt lat="32.76147" lon="-17.13599">
        <ele>1013.366943</ele>
        <time>2013-05-04T10:50:57Z</time>
      </trkpt>
      <trkpt lat="32.7615" lon="-17.13586">
        <ele>1014.808838</ele>
        <time>2013-05-04T10:51:06Z</time>
      </trkpt>
      <trkpt lat="32.76147" lon="-17.13579">
        <ele>1016.250732</ele>
        <time>2013-05-04T10:51:16Z</time>
      </trkpt>
      <trkpt lat="32.76145" lon="-17.13574">
        <ele>1020.096191</ele>
        <time>2013-05-04T10:51:25Z</time>
      </trkpt>
      <trkpt lat="32.76139" lon="-17.13564">
        <ele>1022.980225</ele>
        <time>2013-05-04T10:51:41Z</time>
      </trkpt>
      <trkpt lat="32.76137" lon="-17.13563">
        <ele>1023.460938</ele>
        <time>2013-05-04T10:51:46Z</time>
      </trkpt>
      <trkpt lat="32.76129" lon="-17.13563">
        <ele>1025.864014</ele>
        <time>2013-05-04T10:51:58Z</time>
      </trkpt>
      <trkpt lat="32.76126" lon="-17.13566">
        <ele>1026.825439</ele>
        <time>2013-05-04T10:52:07Z</time>
      </trkpt>
      <trkpt lat="32.7612" lon="-17.13573">
        <ele>1027.306152</ele>
        <time>2013-05-04T10:52:10Z</time>
      </trkpt>
      <trkpt lat="32.76127" lon="-17.13578">
        <ele>1029.709229</ele>
        <time>2013-05-04T10:52:18Z</time>
      </trkpt>
      <trkpt lat="32.76141" lon="-17.13576">
        <ele>1031.631836</ele>
        <time>2013-05-04T10:52:27Z</time>
      </trkpt>
      <trkpt lat="32.76142" lon="-17.13579">
        <ele>1034.996582</ele>
        <time>2013-05-04T10:52:40Z</time>
      </trkpt>
      <trkpt lat="32.76153" lon="-17.13582">
        <ele>1037.880615</ele>
        <time>2013-05-04T10:52:59Z</time>
      </trkpt>
      <trkpt lat="32.76163" lon="-17.13582">
        <ele>1041.245117</ele>
        <time>2013-05-04T10:53:13Z</time>
      </trkpt>
      <trkpt lat="32.76175" lon="-17.13577">
        <ele>1044.12915</ele>
        <time>2013-05-04T10:53:31Z</time>
      </trkpt>
      <trkpt lat="32.76174" lon="-17.13563">
        <ele>1043.167725</ele>
        <time>2013-05-04T10:53:57Z</time>
      </trkpt>
      <trkpt lat="32.76176" lon="-17.13562">
        <ele>1044.609619</ele>
        <time>2013-05-04T10:54:02Z</time>
      </trkpt>
      <trkpt lat="32.76182" lon="-17.13557">
        <ele>1046.051758</ele>
        <time>2013-05-04T10:54:11Z</time>
      </trkpt>
      <trkpt lat="32.76177" lon="-17.1355">
        <ele>1048.454834</ele>
        <time>2013-05-04T10:54:19Z</time>
      </trkpt>
      <trkpt lat="32.76168" lon="-17.13545">
        <ele>1050.858154</ele>
        <time>2013-05-04T10:54:31Z</time>
      </trkpt>
      <trkpt lat="32.76165" lon="-17.1354">
        <ele>1053.742432</ele>
        <time>2013-05-04T10:54:43Z</time>
      </trkpt>
      <trkpt lat="32.76169" lon="-17.13533">
        <ele>1055.184326</ele>
        <time>2013-05-04T10:54:56Z</time>
      </trkpt>
      <trkpt lat="32.76161" lon="-17.13524">
        <ele>1055.665039</ele>
        <time>2013-05-04T10:55:23Z</time>
      </trkpt>
      <trkpt lat="32.76154" lon="-17.13522">
        <ele>1054.703613</ele>
        <time>2013-05-04T10:55:34Z</time>
      </trkpt>
      <trkpt lat="32.76142" lon="-17.13517">
        <ele>1055.184326</ele>
        <time>2013-05-04T10:55:46Z</time>
      </trkpt>
      <trkpt lat="32.76138" lon="-17.13515">
        <ele>1055.184326</ele>
        <time>2013-05-04T10:55:49Z</time>
      </trkpt>
      <trkpt lat="32.76125" lon="-17.13503">
        <ele>1055.665039</ele>
        <time>2013-05-04T10:56:03Z</time>
      </trkpt>
      <trkpt lat="32.76122" lon="-17.13502">
        <ele>1055.665039</ele>
        <time>2013-05-04T10:56:05Z</time>
      </trkpt>
      <trkpt lat="32.76118" lon="-17.13502">
        <ele>1055.184326</ele>
        <time>2013-05-04T10:56:08Z</time>
      </trkpt>
      <trkpt lat="32.76104" lon="-17.13496">
        <ele>1055.665039</ele>
        <time>2013-05-04T10:56:22Z</time>
      </trkpt>
      <trkpt lat="32.76103" lon="-17.13497">
        <ele>1056.145508</ele>
        <time>2013-05-04T10:56:23Z</time>
      </trkpt>
      <trkpt lat="32.76094" lon="-17.13494">
        <ele>1056.626221</ele>
        <time>2013-05-04T10:56:32Z</time>
      </trkpt>
      <trkpt lat="32.76093" lon="-17.13496">
        <ele>1058.068359</ele>
        <time>2013-05-04T10:56:35Z</time>
      </trkpt>
      <trkpt lat="32.76098" lon="-17.135">
        <ele>1060.952148</ele>
        <time>2013-05-04T10:56:45Z</time>
      </trkpt>
      <trkpt lat="32.761" lon="-17.13499">
        <ele>1061.432861</ele>
        <time>2013-05-04T10:56:46Z</time>
      </trkpt>
      <trkpt lat="32.76111" lon="-17.13489">
        <ele>1063.835938</ele>
        <time>2013-05-04T10:56:58Z</time>
      </trkpt>
      <trkpt lat="32.76113" lon="-17.13503">
        <ele>1064.797363</ele>
        <time>2013-05-04T10:57:05Z</time>
      </trkpt>
      <trkpt lat="32.76121" lon="-17.13503">
        <ele>1065.278076</ele>
        <time>2013-05-04T10:57:09Z</time>
      </trkpt>
      <trkpt lat="32.76126" lon="-17.13502">
        <ele>1065.758789</ele>
        <time>2013-05-04T10:57:11Z</time>
      </trkpt>
      <trkpt lat="32.76133" lon="-17.13501">
        <ele>1065.758789</ele>
        <time>2013-05-04T10:57:17Z</time>
      </trkpt>
      <trkpt lat="32.7614" lon="-17.13507">
        <ele>1067.681152</ele>
        <time>2013-05-04T10:57:33Z</time>
      </trkpt>
      <trkpt lat="32.76145" lon="-17.13509">
        <ele>1069.604248</ele>
        <time>2013-05-04T10:57:41Z</time>
      </trkpt>
      <trkpt lat="32.76151" lon="-17.13511">
        <ele>1071.526611</ele>
        <time>2013-05-04T10:57:48Z</time>
      </trkpt>
      <trkpt lat="32.7616" lon="-17.13516">
        <ele>1072.96875</ele>
        <time>2013-05-04T10:57:59Z</time>
      </trkpt>
      <trkpt lat="32.76173" lon="-17.13514">
        <ele>1073.449463</ele>
        <time>2013-05-04T10:58:11Z</time>
      </trkpt>
      <trkpt lat="32.76185" lon="-17.13507">
        <ele>1073.449463</ele>
        <time>2013-05-04T10:58:26Z</time>
      </trkpt>
      <trkpt lat="32.76189" lon="-17.13501">
        <ele>1072.488037</ele>
        <time>2013-05-04T10:58:42Z</time>
      </trkpt>
      <trkpt lat="32.76185" lon="-17.13505">
        <ele>1073.929932</ele>
        <time>2013-05-04T10:58:59Z</time>
      </trkpt>
      <trkpt lat="32.76183" lon="-17.13504">
        <ele>1072.96875</ele>
        <time>2013-05-04T10:59:32Z</time>
      </trkpt>
      <trkpt lat="32.76185" lon="-17.13505">
        <ele>1073.929932</ele>
        <time>2013-05-04T11:00:44Z</time>
      </trkpt>
      <trkpt lat="32.76185" lon="-17.13497">
        <ele>1073.929932</ele>
        <time>2013-05-04T11:01:19Z</time>
      </trkpt>
      <trkpt lat="32.76175" lon="-17.13502">
        <ele>1074.410645</ele>
        <time>2013-05-04T11:01:30Z</time>
      </trkpt>
      <trkpt lat="32.7617" lon="-17.13505">
        <ele>1074.410645</ele>
        <time>2013-05-04T11:01:37Z</time>
      </trkpt>
      <trkpt lat="32.7617" lon="-17.13517">
        <ele>1074.891357</ele>
        <time>2013-05-04T11:01:43Z</time>
      </trkpt>
      <trkpt lat="32.76175" lon="-17.1353">
        <ele>1074.410645</ele>
        <time>2013-05-04T11:02:05Z</time>
      </trkpt>
      <trkpt lat="32.76161" lon="-17.1349">
        <ele>1074.410645</ele>
        <time>2013-05-04T11:02:09Z</time>
      </trkpt>
      <trkpt lat="32.76169" lon="-17.13515">
        <ele>1074.410645</ele>
        <time>2013-05-04T11:02:21Z</time>
      </trkpt>
      <trkpt lat="32.76179" lon="-17.13509">
        <ele>1073.929932</ele>
        <time>2013-05-04T11:02:32Z</time>
      </trkpt>
      <trkpt lat="32.76185" lon="-17.13506">
        <ele>1073.449463</ele>
        <time>2013-05-04T11:02:47Z</time>
      </trkpt>
      <trkpt lat="32.76186" lon="-17.13495">
        <ele>1072.96875</ele>
        <time>2013-05-04T11:03:16Z</time>
      </trkpt>
      <trkpt lat="32.76191" lon="-17.13499">
        <ele>1073.449463</ele>
        <time>2013-05-04T11:04:10Z</time>
      </trkpt>
      <trkpt lat="32.76193" lon="-17.13502">
        <ele>1074.891357</ele>
        <time>2013-05-04T11:04:24Z</time>
      </trkpt>
      <trkpt lat="32.76195" lon="-17.13499">
        <ele>1074.410645</ele>
        <time>2013-05-04T11:04:40Z</time>
      </trkpt>
      <trkpt lat="32.7619" lon="-17.13496">
        <ele>1074.410645</ele>
        <time>2013-05-04T11:04:55Z</time>
      </trkpt>
      <trkpt lat="32.76189" lon="-17.135">
        <ele>1074.410645</ele>
        <time>2013-05-04T11:06:06Z</time>
      </trkpt>
      <trkpt lat="32.7619" lon="-17.13496">
        <ele>1074.891357</ele>
        <time>2013-05-04T11:06:34Z</time>
      </trkpt>
      <trkpt lat="32.76193" lon="-17.13486">
        <ele>1074.410645</ele>
        <time>2013-05-04T11:06:56Z</time>
      </trkpt>
      <trkpt lat="32.76189" lon="-17.13493">
        <ele>1075.852539</ele>
        <time>2013-05-04T11:07:21Z</time>
      </trkpt>
      <trkpt lat="32.76187" lon="-17.13495">
        <ele>1075.371826</ele>
        <time>2013-05-04T11:07:52Z</time>
      </trkpt>
      <trkpt lat="32.76187" lon="-17.13491">
        <ele>1074.891357</ele>
        <time>2013-05-04T11:08:20Z</time>
      </trkpt>
      <trkpt lat="32.76185" lon="-17.13492">
        <ele>1076.333252</ele>
        <time>2013-05-04T11:08:46Z</time>
      </trkpt>
      <trkpt lat="32.76184" lon="-17.13492">
        <ele>1075.852539</ele>
        <time>2013-05-04T11:08:47Z</time>
      </trkpt>
      <trkpt lat="32.76185" lon="-17.1349">
        <ele>1076.333252</ele>
        <time>2013-05-04T11:09:02Z</time>
      </trkpt>
      <trkpt lat="32.76187" lon="-17.13492">
        <ele>1075.371826</ele>
        <time>2013-05-04T11:09:18Z</time>
      </trkpt>
      <trkpt lat="32.76186" lon="-17.13491">
        <ele>1074.891357</ele>
        <time>2013-05-04T11:09:37Z</time>
      </trkpt>
      <trkpt lat="32.76176" lon="-17.135">
        <ele>1074.410645</ele>
        <time>2013-05-04T11:10:14Z</time>
      </trkpt>
      <trkpt lat="32.76186" lon="-17.13502">
        <ele>1075.371826</ele>
        <time>2013-05-04T11:10:43Z</time>
      </trkpt>
      <trkpt lat="32.76185" lon="-17.13496">
        <ele>1075.852539</ele>
        <time>2013-05-04T11:11:09Z</time>
      </trkpt>
      <trkpt lat="32.76185" lon="-17.1349">
        <ele>1075.371826</ele>
        <time>2013-05-04T11:11:32Z</time>
      </trkpt>
      <trkpt lat="32.76184" lon="-17.13497">
        <ele>1074.891357</ele>
        <time>2013-05-04T11:11:56Z</time>
      </trkpt>
      <trkpt lat="32.76187" lon="-17.13489">
        <ele>1075.852539</ele>
        <time>2013-05-04T11:12:59Z</time>
      </trkpt>
      <trkpt lat="32.76189" lon="-17.13497">
        <ele>1076.813965</ele>
        <time>2013-05-04T11:13:18Z</time>
      </trkpt>
      <trkpt lat="32.76183" lon="-17.13505">
        <ele>1074.410645</ele>
        <time>2013-05-04T11:13:39Z</time>
      </trkpt>
      <trkpt lat="32.76188" lon="-17.13496">
        <ele>1075.852539</ele>
        <time>2013-05-04T11:14:45Z</time>
      </trkpt>
      <trkpt lat="32.76187" lon="-17.13501">
        <ele>1074.410645</ele>
        <time>2013-05-04T11:15:36Z</time>
      </trkpt>
      <trkpt lat="32.76187" lon="-17.13502">
        <ele>1075.371826</ele>
        <time>2013-05-04T11:16:00Z</time>
      </trkpt>
      <trkpt lat="32.7619" lon="-17.13498">
        <ele>1074.891357</ele>
        <time>2013-05-04T11:17:25Z</time>
      </trkpt>
      <trkpt lat="32.76186" lon="-17.13504">
        <ele>1074.891357</ele>
        <time>2013-05-04T11:17:55Z</time>
      </trkpt>
      <trkpt lat="32.76184" lon="-17.13504">
        <ele>1075.371826</ele>
        <time>2013-05-04T11:18:38Z</time>
      </trkpt>
      <trkpt lat="32.76182" lon="-17.13507">
        <ele>1075.371826</ele>
        <time>2013-05-04T11:19:08Z</time>
      </trkpt>
      <trkpt lat="32.76184" lon="-17.13504">
        <ele>1074.891357</ele>
        <time>2013-05-04T11:20:04Z</time>
      </trkpt>
      <trkpt lat="32.76182" lon="-17.13509">
        <ele>1074.410645</ele>
        <time>2013-05-04T11:20:39Z</time>
      </trkpt>
      <trkpt lat="32.76184" lon="-17.13504">
        <ele>1074.410645</ele>
        <time>2013-05-04T11:21:22Z</time>
      </trkpt>
      <trkpt lat="32.76186" lon="-17.13503">
        <ele>1074.891357</ele>
        <time>2013-05-04T11:23:56Z</time>
      </trkpt>
      <trkpt lat="32.76186" lon="-17.13486">
        <ele>1074.410645</ele>
        <time>2013-05-04T11:25:52Z</time>
      </trkpt>
      <trkpt lat="32.76185" lon="-17.13492">
        <ele>1074.410645</ele>
        <time>2013-05-04T11:26:35Z</time>
      </trkpt>
      <trkpt lat="32.76181" lon="-17.13501">
        <ele>1074.410645</ele>
        <time>2013-05-04T11:31:49Z</time>
      </trkpt>
      <trkpt lat="32.76182" lon="-17.13505">
        <ele>1075.371826</ele>
        <time>2013-05-04T11:32:08Z</time>
      </trkpt>
      <trkpt lat="32.76182" lon="-17.13509">
        <ele>1075.371826</ele>
        <time>2013-05-04T11:32:25Z</time>
      </trkpt>
      <trkpt lat="32.76182" lon="-17.13512">
        <ele>1074.410645</ele>
        <time>2013-05-04T11:32:40Z</time>
      </trkpt>
      <trkpt lat="32.76182" lon="-17.13506">
        <ele>1074.891357</ele>
        <time>2013-05-04T11:32:56Z</time>
      </trkpt>
      <trkpt lat="32.76182" lon="-17.13505">
        <ele>1074.891357</ele>
        <time>2013-05-04T11:33:40Z</time>
      </trkpt>
      <trkpt lat="32.76178" lon="-17.13498">
        <ele>1074.891357</ele>
        <time>2013-05-04T11:34:02Z</time>
      </trkpt>
      <trkpt lat="32.76173" lon="-17.13502">
        <ele>1075.852539</ele>
        <time>2013-05-04T11:34:11Z</time>
      </trkpt>
      <trkpt lat="32.76168" lon="-17.13504">
        <ele>1077.775146</ele>
        <time>2013-05-04T11:34:29Z</time>
      </trkpt>
      <trkpt lat="32.76168" lon="-17.13501">
        <ele>1080.178467</ele>
        <time>2013-05-04T11:34:51Z</time>
      </trkpt>
      <trkpt lat="32.76169" lon="-17.13499">
        <ele>1082.101074</ele>
        <time>2013-05-04T11:35:01Z</time>
      </trkpt>
      <trkpt lat="32.76165" lon="-17.1349">
        <ele>1082.101074</ele>
        <time>2013-05-04T11:35:08Z</time>
      </trkpt>
      <trkpt lat="32.76159" lon="-17.1348">
        <ele>1082.101074</ele>
        <time>2013-05-04T11:35:23Z</time>
      </trkpt>
      <trkpt lat="32.76164" lon="-17.13469">
        <ele>1082.581787</ele>
        <time>2013-05-04T11:35:33Z</time>
      </trkpt>
      <trkpt lat="32.76165" lon="-17.13461">
        <ele>1084.023926</ele>
        <time>2013-05-04T11:35:51Z</time>
      </trkpt>
      <trkpt lat="32.76164" lon="-17.13454">
        <ele>1085.46582</ele>
        <time>2013-05-04T11:36:02Z</time>
      </trkpt>
      <trkpt lat="32.76167" lon="-17.1345">
        <ele>1084.504639</ele>
        <time>2013-05-04T11:36:16Z</time>
      </trkpt>
      <trkpt lat="32.7617" lon="-17.13452">
        <ele>1085.46582</ele>
        <time>2013-05-04T11:36:45Z</time>
      </trkpt>
      <trkpt lat="32.7617" lon="-17.13433">
        <ele>1087.388428</ele>
        <time>2013-05-04T11:37:00Z</time>
      </trkpt>
      <trkpt lat="32.7617" lon="-17.13422">
        <ele>1088.830566</ele>
        <time>2013-05-04T11:37:15Z</time>
      </trkpt>
      <trkpt lat="32.76172" lon="-17.13412">
        <ele>1089.791748</ele>
        <time>2013-05-04T11:37:27Z</time>
      </trkpt>
      <trkpt lat="32.76172" lon="-17.13392">
        <ele>1091.714355</ele>
        <time>2013-05-04T11:37:45Z</time>
      </trkpt>
      <trkpt lat="32.76176" lon="-17.13372">
        <ele>1093.636963</ele>
        <time>2013-05-04T11:38:04Z</time>
      </trkpt>
      <trkpt lat="32.76179" lon="-17.13365">
        <ele>1095.078857</ele>
        <time>2013-05-04T11:38:11Z</time>
      </trkpt>
      <trkpt lat="32.7619" lon="-17.13346">
        <ele>1097.482178</ele>
        <time>2013-05-04T11:38:28Z</time>
      </trkpt>
      <trkpt lat="32.76193" lon="-17.13334">
        <ele>1098.924072</ele>
        <time>2013-05-04T11:38:40Z</time>
      </trkpt>
      <trkpt lat="32.76204" lon="-17.13321">
        <ele>1101.80835</ele>
        <time>2013-05-04T11:38:55Z</time>
      </trkpt>
      <trkpt lat="32.76221" lon="-17.13305">
        <ele>1104.21167</ele>
        <time>2013-05-04T11:39:16Z</time>
      </trkpt>
      <trkpt lat="32.76226" lon="-17.13301">
        <ele>1105.653564</ele>
        <time>2013-05-04T11:39:24Z</time>
      </trkpt>
      <trkpt lat="32.76231" lon="-17.13295">
        <ele>1106.134033</ele>
        <time>2013-05-04T11:39:29Z</time>
      </trkpt>
      <trkpt lat="32.76235" lon="-17.13276">
        <ele>1107.095459</ele>
        <time>2013-05-04T11:39:45Z</time>
      </trkpt>
      <trkpt lat="32.76232" lon="-17.13276">
        <ele>1108.056885</ele>
        <time>2013-05-04T11:39:48Z</time>
      </trkpt>
      <trkpt lat="32.76221" lon="-17.13288">
        <ele>1111.421387</ele>
        <time>2013-05-04T11:40:02Z</time>
      </trkpt>
      <trkpt lat="32.76218" lon="-17.13291">
        <ele>1111.9021</ele>
        <time>2013-05-04T11:40:06Z</time>
      </trkpt>
      <trkpt lat="32.76208" lon="-17.13298">
        <ele>1113.824463</ele>
        <time>2013-05-04T11:40:16Z</time>
      </trkpt>
      <trkpt lat="32.76195" lon="-17.13305">
        <ele>1116.228027</ele>
        <time>2013-05-04T11:40:29Z</time>
      </trkpt>
      <trkpt lat="32.76193" lon="-17.13306">
        <ele>1116.70874</ele>
        <time>2013-05-04T11:40:31Z</time>
      </trkpt>
      <trkpt lat="32.76176" lon="-17.1331">
        <ele>1118.631348</ele>
        <time>2013-05-04T11:40:45Z</time>
      </trkpt>
      <trkpt lat="32.76173" lon="-17.13317">
        <ele>1119.112061</ele>
        <time>2013-05-04T11:40:50Z</time>
      </trkpt>
      <trkpt lat="32.76164" lon="-17.13325">
        <ele>1121.034668</ele>
        <time>2013-05-04T11:41:02Z</time>
      </trkpt>
      <trkpt lat="32.76152" lon="-17.13333">
        <ele>1122.476562</ele>
        <time>2013-05-04T11:41:14Z</time>
      </trkpt>
      <trkpt lat="32.76147" lon="-17.13335">
        <ele>1122.957275</ele>
        <time>2013-05-04T11:41:18Z</time>
      </trkpt>
      <trkpt lat="32.76135" lon="-17.13345">
        <ele>1124.39917</ele>
        <time>2013-05-04T11:41:30Z</time>
      </trkpt>
      <trkpt lat="32.76125" lon="-17.13356">
        <ele>1126.321777</ele>
        <time>2013-05-04T11:41:42Z</time>
      </trkpt>
      <trkpt lat="32.76107" lon="-17.1336">
        <ele>1129.205566</ele>
        <time>2013-05-04T11:41:58Z</time>
      </trkpt>
      <trkpt lat="32.76094" lon="-17.1336">
        <ele>1131.128418</ele>
        <time>2013-05-04T11:42:11Z</time>
      </trkpt>
      <trkpt lat="32.76091" lon="-17.13359">
        <ele>1134.012451</ele>
        <time>2013-05-04T11:42:13Z</time>
      </trkpt>
      <trkpt lat="32.76073" lon="-17.13354">
        <ele>1133.531738</ele>
        <time>2013-05-04T11:42:28Z</time>
      </trkpt>
      <trkpt lat="32.76065" lon="-17.13349">
        <ele>1136.415771</ele>
        <time>2013-05-04T11:42:38Z</time>
      </trkpt>
      <trkpt lat="32.76056" lon="-17.13345">
        <ele>1136.415771</ele>
        <time>2013-05-04T11:42:47Z</time>
      </trkpt>
      <trkpt lat="32.76048" lon="-17.13342">
        <ele>1137.857666</ele>
        <time>2013-05-04T11:42:55Z</time>
      </trkpt>
      <trkpt lat="32.76037" lon="-17.13344">
        <ele>1139.780273</ele>
        <time>2013-05-04T11:43:04Z</time>
      </trkpt>
      <trkpt lat="32.76019" lon="-17.13333">
        <ele>1141.702881</ele>
        <time>2013-05-04T11:43:21Z</time>
      </trkpt>
      <trkpt lat="32.76013" lon="-17.13323">
        <ele>1143.144775</ele>
        <time>2013-05-04T11:43:29Z</time>
      </trkpt>
      <trkpt lat="32.7601" lon="-17.1332">
        <ele>1143.625488</ele>
        <time>2013-05-04T11:43:33Z</time>
      </trkpt>
      <trkpt lat="32.76001" lon="-17.13316">
        <ele>1145.067383</ele>
        <time>2013-05-04T11:43:41Z</time>
      </trkpt>
      <trkpt lat="32.75991" lon="-17.13312">
        <ele>1147.470703</ele>
        <time>2013-05-04T11:43:51Z</time>
      </trkpt>
      <trkpt lat="32.75982" lon="-17.1331">
        <ele>1148.912842</ele>
        <time>2013-05-04T11:43:59Z</time>
      </trkpt>
      <trkpt lat="32.75977" lon="-17.13308">
        <ele>1149.874268</ele>
        <time>2013-05-04T11:44:03Z</time>
      </trkpt>
      <trkpt lat="32.75972" lon="-17.13309">
        <ele>1150.835449</ele>
        <time>2013-05-04T11:44:07Z</time>
      </trkpt>
      <trkpt lat="32.75954" lon="-17.13306">
        <ele>1154.200195</ele>
        <time>2013-05-04T11:44:24Z</time>
      </trkpt>
      <trkpt lat="32.75937" lon="-17.13299">
        <ele>1157.083984</ele>
        <time>2013-05-04T11:44:40Z</time>
      </trkpt>
      <trkpt lat="32.75922" lon="-17.13295">
        <ele>1160.448486</ele>
        <time>2013-05-04T11:44:53Z</time>
      </trkpt>
      <trkpt lat="32.75917" lon="-17.13288">
        <ele>1161.890625</ele>
        <time>2013-05-04T11:45:00Z</time>
      </trkpt>
      <trkpt lat="32.75913" lon="-17.13283">
        <ele>1162.851807</ele>
        <time>2013-05-04T11:45:06Z</time>
      </trkpt>
      <trkpt lat="32.75909" lon="-17.13278">
        <ele>1163.33252</ele>
        <time>2013-05-04T11:45:11Z</time>
      </trkpt>
      <trkpt lat="32.75909" lon="-17.13276">
        <ele>1163.33252</ele>
        <time>2013-05-04T11:45:13Z</time>
      </trkpt>
      <trkpt lat="32.75898" lon="-17.13264">
        <ele>1166.697266</ele>
        <time>2013-05-04T11:45:26Z</time>
      </trkpt>
      <trkpt lat="32.75893" lon="-17.13256">
        <ele>1167.177979</ele>
        <time>2013-05-04T11:45:33Z</time>
      </trkpt>
      <trkpt lat="32.75888" lon="-17.13253">
        <ele>1168.13916</ele>
        <time>2013-05-04T11:45:37Z</time>
      </trkpt>
      <trkpt lat="32.75871" lon="-17.13247">
        <ele>1171.023193</ele>
        <time>2013-05-04T11:45:52Z</time>
      </trkpt>
      <trkpt lat="32.75861" lon="-17.1324">
        <ele>1172.945801</ele>
        <time>2013-05-04T11:46:03Z</time>
      </trkpt>
      <trkpt lat="32.7586" lon="-17.13238">
        <ele>1173.426514</ele>
        <time>2013-05-04T11:46:05Z</time>
      </trkpt>
      <trkpt lat="32.75851" lon="-17.1323">
        <ele>1175.82959</ele>
        <time>2013-05-04T11:46:15Z</time>
      </trkpt>
      <trkpt lat="32.75832" lon="-17.13224">
        <ele>1178.713623</ele>
        <time>2013-05-04T11:46:32Z</time>
      </trkpt>
      <trkpt lat="32.75816" lon="-17.13223">
        <ele>1180.155762</ele>
        <time>2013-05-04T11:46:45Z</time>
      </trkpt>
      <trkpt lat="32.75811" lon="-17.1321">
        <ele>1183.520264</ele>
        <time>2013-05-04T11:46:56Z</time>
      </trkpt>
      <trkpt lat="32.75811" lon="-17.13203">
        <ele>1184.481689</ele>
        <time>2013-05-04T11:47:02Z</time>
      </trkpt>
      <trkpt lat="32.75808" lon="-17.13188">
        <ele>1186.884766</ele>
        <time>2013-05-04T11:47:14Z</time>
      </trkpt>
      <trkpt lat="32.75806" lon="-17.13187">
        <ele>1187.365479</ele>
        <time>2013-05-04T11:47:17Z</time>
      </trkpt>
      <trkpt lat="32.75802" lon="-17.13171">
        <ele>1189.288086</ele>
        <time>2013-05-04T11:47:28Z</time>
      </trkpt>
      <trkpt lat="32.75793" lon="-17.13164">
        <ele>1189.768799</ele>
        <time>2013-05-04T11:47:43Z</time>
      </trkpt>
      <trkpt lat="32.75794" lon="-17.13163">
        <ele>1191.210693</ele>
        <time>2013-05-04T11:48:05Z</time>
      </trkpt>
      <trkpt lat="32.75779" lon="-17.1317">
        <ele>1192.652832</ele>
        <time>2013-05-04T11:48:17Z</time>
      </trkpt>
      <trkpt lat="32.7576" lon="-17.13167">
        <ele>1195.055908</ele>
        <time>2013-05-04T11:48:33Z</time>
      </trkpt>
      <trkpt lat="32.75751" lon="-17.13163">
        <ele>1195.536621</ele>
        <time>2013-05-04T11:48:41Z</time>
      </trkpt>
      <trkpt lat="32.75746" lon="-17.1316">
        <ele>1196.017578</ele>
        <time>2013-05-04T11:48:46Z</time>
      </trkpt>
      <trkpt lat="32.75735" lon="-17.13144">
        <ele>1198.420654</ele>
        <time>2013-05-04T11:49:02Z</time>
      </trkpt>
      <trkpt lat="32.75729" lon="-17.13132">
        <ele>1201.304688</ele>
        <time>2013-05-04T11:49:12Z</time>
      </trkpt>
      <trkpt lat="32.75718" lon="-17.13132">
        <ele>1202.265869</ele>
        <time>2013-05-04T11:49:21Z</time>
      </trkpt>
      <trkpt lat="32.75703" lon="-17.13132">
        <ele>1204.669189</ele>
        <time>2013-05-04T11:49:35Z</time>
      </trkpt>
      <trkpt lat="32.7569" lon="-17.13131">
        <ele>1205.630615</ele>
        <time>2013-05-04T11:49:46Z</time>
      </trkpt>
      <trkpt lat="32.75677" lon="-17.13129">
        <ele>1207.07251</ele>
        <time>2013-05-04T11:49:56Z</time>
      </trkpt>
      <trkpt lat="32.75669" lon="-17.13129">
        <ele>1208.033936</ele>
        <time>2013-05-04T11:50:03Z</time>
      </trkpt>
      <trkpt lat="32.75661" lon="-17.13125">
        <ele>1208.995117</ele>
        <time>2013-05-04T11:50:09Z</time>
      </trkpt>
      <trkpt lat="32.75655" lon="-17.13122">
        <ele>1210.437012</ele>
        <time>2013-05-04T11:50:14Z</time>
      </trkpt>
      <trkpt lat="32.75653" lon="-17.13123">
        <ele>1210.437012</ele>
        <time>2013-05-04T11:50:17Z</time>
      </trkpt>
      <trkpt lat="32.75649" lon="-17.13122">
        <ele>1210.917725</ele>
        <time>2013-05-04T11:50:20Z</time>
      </trkpt>
      <trkpt lat="32.75631" lon="-17.13114">
        <ele>1211.87915</ele>
        <time>2013-05-04T11:50:34Z</time>
      </trkpt>
      <trkpt lat="32.75619" lon="-17.13114">
        <ele>1212.840576</ele>
        <time>2013-05-04T11:50:43Z</time>
      </trkpt>
      <trkpt lat="32.75612" lon="-17.13122">
        <ele>1214.763184</ele>
        <time>2013-05-04T11:50:52Z</time>
      </trkpt>
      <trkpt lat="32.75596" lon="-17.1313">
        <ele>1215.724609</ele>
        <time>2013-05-04T11:51:05Z</time>
      </trkpt>
      <trkpt lat="32.75584" lon="-17.13137">
        <ele>1215.243896</ele>
        <time>2013-05-04T11:51:16Z</time>
      </trkpt>
      <trkpt lat="32.75582" lon="-17.13136">
        <ele>1215.243896</ele>
        <time>2013-05-04T11:51:22Z</time>
      </trkpt>
      <trkpt lat="32.7557" lon="-17.13126">
        <ele>1218.127686</ele>
        <time>2013-05-04T11:51:34Z</time>
      </trkpt>
      <trkpt lat="32.75562" lon="-17.1312">
        <ele>1217.646973</ele>
        <time>2013-05-04T11:51:41Z</time>
      </trkpt>
      <trkpt lat="32.75554" lon="-17.13113">
        <ele>1219.569824</ele>
        <time>2013-05-04T11:51:49Z</time>
      </trkpt>
      <trkpt lat="32.75541" lon="-17.13105">
        <ele>1223.415039</ele>
        <time>2013-05-04T11:52:01Z</time>
      </trkpt>
      <trkpt lat="32.75531" lon="-17.13102">
        <ele>1224.376221</ele>
        <time>2013-05-04T11:52:09Z</time>
      </trkpt>
      <trkpt lat="32.75515" lon="-17.13099">
        <ele>1227.260254</ele>
        <time>2013-05-04T11:52:22Z</time>
      </trkpt>
      <trkpt lat="32.75503" lon="-17.13089">
        <ele>1228.702393</ele>
        <time>2013-05-04T11:52:35Z</time>
      </trkpt>
      <trkpt lat="32.75493" lon="-17.13083">
        <ele>1231.105713</ele>
        <time>2013-05-04T11:52:45Z</time>
      </trkpt>
      <trkpt lat="32.7548" lon="-17.13072">
        <ele>1231.586182</ele>
        <time>2013-05-04T11:52:58Z</time>
      </trkpt>
      <trkpt lat="32.75474" lon="-17.13063">
        <ele>1233.028076</ele>
        <time>2013-05-04T11:53:05Z</time>
      </trkpt>
      <trkpt lat="32.75465" lon="-17.13054">
        <ele>1233.028076</ele>
        <time>2013-05-04T11:53:13Z</time>
      </trkpt>
      <trkpt lat="32.75451" lon="-17.13049">
        <ele>1233.989502</ele>
        <time>2013-05-04T11:53:25Z</time>
      </trkpt>
      <trkpt lat="32.75441" lon="-17.13046">
        <ele>1235.912109</ele>
        <time>2013-05-04T11:53:32Z</time>
      </trkpt>
      <trkpt lat="32.75435" lon="-17.13048">
        <ele>1235.912109</ele>
        <time>2013-05-04T11:53:37Z</time>
      </trkpt>
      <trkpt lat="32.7543" lon="-17.13052">
        <ele>1237.354004</ele>
        <time>2013-05-04T11:53:42Z</time>
      </trkpt>
      <trkpt lat="32.75426" lon="-17.13052">
        <ele>1237.834717</ele>
        <time>2013-05-04T11:53:45Z</time>
      </trkpt>
      <trkpt lat="32.75411" lon="-17.13035">
        <ele>1240.718506</ele>
        <time>2013-05-04T11:54:03Z</time>
      </trkpt>
      <trkpt lat="32.7541" lon="-17.13029">
        <ele>1241.199219</ele>
        <time>2013-05-04T11:54:07Z</time>
      </trkpt>
      <trkpt lat="32.7541" lon="-17.13011">
        <ele>1242.641357</ele>
        <time>2013-05-04T11:54:19Z</time>
      </trkpt>
      <trkpt lat="32.75404" lon="-17.12997">
        <ele>1244.563965</ele>
        <time>2013-05-04T11:54:29Z</time>
      </trkpt>
      <trkpt lat="32.754" lon="-17.12985">
        <ele>1245.044678</ele>
        <time>2013-05-04T11:54:36Z</time>
      </trkpt>
      <trkpt lat="32.7539" lon="-17.12981">
        <ele>1246.486816</ele>
        <time>2013-05-04T11:54:44Z</time>
      </trkpt>
      <trkpt lat="32.75387" lon="-17.1298">
        <ele>1246.486816</ele>
        <time>2013-05-04T11:54:47Z</time>
      </trkpt>
      <trkpt lat="32.75381" lon="-17.12973">
        <ele>1247.928711</ele>
        <time>2013-05-04T11:54:53Z</time>
      </trkpt>
      <trkpt lat="32.75376" lon="-17.1297">
        <ele>1248.40918</ele>
        <time>2013-05-04T11:54:58Z</time>
      </trkpt>
      <trkpt lat="32.75368" lon="-17.12954">
        <ele>1248.889893</ele>
        <time>2013-05-04T11:55:09Z</time>
      </trkpt>
      <trkpt lat="32.75362" lon="-17.12937">
        <ele>1247.928711</ele>
        <time>2013-05-04T11:55:24Z</time>
      </trkpt>
      <trkpt lat="32.75356" lon="-17.12923">
        <ele>1246.967285</ele>
        <time>2013-05-04T11:55:37Z</time>
      </trkpt>
      <trkpt lat="32.75348" lon="-17.12919">
        <ele>1246.486816</ele>
        <time>2013-05-04T11:55:46Z</time>
      </trkpt>
      <trkpt lat="32.75347" lon="-17.12932">
        <ele>1247.928711</ele>
        <time>2013-05-04T11:55:57Z</time>
      </trkpt>
      <trkpt lat="32.75347" lon="-17.12939">
        <ele>1248.40918</ele>
        <time>2013-05-04T11:56:01Z</time>
      </trkpt>
      <trkpt lat="32.75338" lon="-17.12967">
        <ele>1250.8125</ele>
        <time>2013-05-04T11:56:20Z</time>
      </trkpt>
      <trkpt lat="32.75338" lon="-17.12974">
        <ele>1251.773926</ele>
        <time>2013-05-04T11:56:25Z</time>
      </trkpt>
      <trkpt lat="32.7534" lon="-17.12993">
        <ele>1255.138428</ele>
        <time>2013-05-04T11:56:38Z</time>
      </trkpt>
      <trkpt lat="32.75345" lon="-17.13014">
        <ele>1257.061035</ele>
        <time>2013-05-04T11:56:52Z</time>
      </trkpt>
      <trkpt lat="32.75344" lon="-17.1302">
        <ele>1257.061035</ele>
        <time>2013-05-04T11:56:56Z</time>
      </trkpt>
      <trkpt lat="32.75335" lon="-17.13039">
        <ele>1260.425781</ele>
        <time>2013-05-04T11:57:11Z</time>
      </trkpt>
      <trkpt lat="32.75321" lon="-17.13056">
        <ele>1263.790283</ele>
        <time>2013-05-04T11:57:26Z</time>
      </trkpt>
      <trkpt lat="32.75317" lon="-17.1307">
        <ele>1265.232422</ele>
        <time>2013-05-04T11:57:35Z</time>
      </trkpt>
      <trkpt lat="32.75316" lon="-17.13092">
        <ele>1268.116211</ele>
        <time>2013-05-04T11:57:49Z</time>
      </trkpt>
      <trkpt lat="32.75315" lon="-17.13093">
        <ele>1268.596924</ele>
        <time>2013-05-04T11:57:50Z</time>
      </trkpt>
      <trkpt lat="32.75318" lon="-17.13117">
        <ele>1270.519531</ele>
        <time>2013-05-04T11:58:06Z</time>
      </trkpt>
      <trkpt lat="32.75321" lon="-17.13129">
        <ele>1272.922852</ele>
        <time>2013-05-04T11:58:14Z</time>
      </trkpt>
      <trkpt lat="32.75326" lon="-17.1314">
        <ele>1273.884033</ele>
        <time>2013-05-04T11:58:22Z</time>
      </trkpt>
      <trkpt lat="32.75345" lon="-17.13158">
        <ele>1277.249023</ele>
        <time>2013-05-04T11:58:40Z</time>
      </trkpt>
      <trkpt lat="32.75348" lon="-17.1316">
        <ele>1277.249023</ele>
        <time>2013-05-04T11:58:43Z</time>
      </trkpt>
      <trkpt lat="32.75351" lon="-17.13179">
        <ele>1278.690918</ele>
        <time>2013-05-04T11:58:56Z</time>
      </trkpt>
      <trkpt lat="32.75354" lon="-17.13198">
        <ele>1283.016602</ele>
        <time>2013-05-04T11:59:09Z</time>
      </trkpt>
      <trkpt lat="32.75358" lon="-17.13222">
        <ele>1284.45874</ele>
        <time>2013-05-04T11:59:25Z</time>
      </trkpt>
      <trkpt lat="32.75365" lon="-17.13238">
        <ele>1287.342529</ele>
        <time>2013-05-04T11:59:35Z</time>
      </trkpt>
      <trkpt lat="32.75374" lon="-17.13256">
        <ele>1289.74585</ele>
        <time>2013-05-04T11:59:53Z</time>
      </trkpt>
      <trkpt lat="32.75384" lon="-17.13272">
        <ele>1292.149414</ele>
        <time>2013-05-04T12:00:09Z</time>
      </trkpt>
      <trkpt lat="32.75397" lon="-17.13292">
        <ele>1294.072021</ele>
        <time>2013-05-04T12:00:24Z</time>
      </trkpt>
      <trkpt lat="32.75415" lon="-17.13312">
        <ele>1295.994629</ele>
        <time>2013-05-04T12:00:42Z</time>
      </trkpt>
      <trkpt lat="32.75421" lon="-17.13319">
        <ele>1295.994629</ele>
        <time>2013-05-04T12:00:48Z</time>
      </trkpt>
      <trkpt lat="32.75444" lon="-17.13338">
        <ele>1297.917236</ele>
        <time>2013-05-04T12:01:09Z</time>
      </trkpt>
      <trkpt lat="32.75458" lon="-17.1335">
        <ele>1298.878418</ele>
        <time>2013-05-04T12:01:21Z</time>
      </trkpt>
      <trkpt lat="32.75472" lon="-17.13372">
        <ele>1299.839844</ele>
        <time>2013-05-04T12:01:37Z</time>
      </trkpt>
      <trkpt lat="32.75478" lon="-17.13378">
        <ele>1299.359131</ele>
        <time>2013-05-04T12:01:44Z</time>
      </trkpt>
      <trkpt lat="32.75479" lon="-17.13379">
        <ele>1302.723633</ele>
        <time>2013-05-04T12:01:45Z</time>
      </trkpt>
      <trkpt lat="32.7548" lon="-17.1338">
        <ele>1300.801025</ele>
        <time>2013-05-04T12:01:46Z</time>
      </trkpt>
      <trkpt lat="32.75486" lon="-17.13375">
        <ele>1301.281738</ele>
        <time>2013-05-04T12:01:57Z</time>
      </trkpt>
      <trkpt lat="32.75486" lon="-17.13371">
        <ele>1301.281738</ele>
        <time>2013-05-04T12:02:13Z</time>
      </trkpt>
      <trkpt lat="32.75485" lon="-17.13373">
        <ele>1301.281738</ele>
        <time>2013-05-04T12:02:59Z</time>
      </trkpt>
      <trkpt lat="32.75484" lon="-17.13373">
        <ele>1300.801025</ele>
        <time>2013-05-04T12:03:09Z</time>
      </trkpt>
    </trkseg>
  </trk>
</gpx>